Observation data for Clyde on 04/24/2019      Previous  Date  Next       Current Mesonet Observations  Soil Data  Daily Summary Page  Observations in Plain Language
KCL2 240500Z 34013KT 15/15 A30 RMK A01 T01480147  RH  099%=      5-min Rain = 0
KCL2 240501Z 34014KT 15/15 A30 RMK A01 T01480147  RH  099%=      5-min Rain = 0.01
KCL2 240502Z 33012G17KT 15/15 A30 RMK A01 T01480147  RH  099%=      5-min Rain = 0
KCL2 240503Z 34017KT 15/15 A30 RMK A01 T01480147  RH  100%=      5-min Rain = 0
KCL2 240504Z 34016KT 15/15 A30 RMK A01 T01470147  RH  100%=      5-min Rain = 0.01
KCL2 240505Z 34019G25KT 15/15 A30 RMK A01 T01470146  RH  100%=      5-min Rain = 0
KCL2 240506Z 34022KT 15/15 A30 RMK A01 T01460146  RH  100%=      5-min Rain = 0
KCL2 240507Z 34018KT 15/15 A30 RMK A01 T01460145  RH  100%=      5-min Rain = 0.01
KCL2 240508Z 33019KT 15/15 A30 RMK A01 T01450145  RH  100%=      5-min Rain = 0
KCL2 240509Z 34019KT 15/15 A30 RMK A01 T01450145  RH  099%=      5-min Rain = 0.01
KCL2 240510Z 34016KT 15/15 A30 RMK A01 T01460145  RH  100%=      5-min Rain = 0
KCL2 240511Z 34018KT 15/14 A30 RMK A01 T01450144  RH  100%=      5-min Rain = 0
KCL2 240512Z 34017G23KT 15/15 A3001 RMK A01 T01450145  RH  100%=      5-min Rain = 0.01
KCL2 240513Z 34013G18KT 15/14 A3001 RMK A01 T01450144  RH  099%=      5-min Rain = 0
KCL2 240514Z 35013G19KT 15/14 A3001 RMK A01 T01450144  RH  099%=      5-min Rain = 0.01
KCL2 240515Z 35014KT 15/15 A3001 RMK A01 T01450145  RH  100%=      5-min Rain = 0
KCL2 240516Z 36012KT 15/14 A3001 RMK A01 T01450144  RH  100%=      5-min Rain = 0.01
KCL2 240517Z 35013KT 15/14 A30 RMK A01 T01450144  RH  100%=      5-min Rain = 0
KCL2 240518Z 36014KT 15/14 A30 RMK A01 T01450144  RH  099%=      5-min Rain = 0
KCL2 240519Z 00014KT 15/14 A30 RMK A01 T01450144  RH  099%=      5-min Rain = 0.01
KCL2 240520Z 01011KT 15/14 A30 RMK A01 T01450144  RH  099%=      5-min Rain = 0
KCL2 240521Z 01009KT 14/14 A2999 RMK A01 T01440143  RH  099%=      5-min Rain = 0.01
KCL2 240522Z 01010KT 15/14 A2999 RMK A01 T01450144  RH  099%=      5-min Rain = 0
KCL2 240523Z 36011KT 14/14 A2999 RMK A01 T01440143  RH  099%=      5-min Rain = 0
KCL2 240524Z 35011KT 15/14 A2999 RMK A01 T01450144  RH  099%=      5-min Rain = 0
KCL2 240525Z 35009KT 15/14 A2999 RMK A01 T01450144  RH  099%=      5-min Rain = 0.01
KCL2 240526Z 36008G13KT 15/14 A30 RMK A01 T01450144  RH  099%=      5-min Rain = 0
KCL2 240527Z 01011KT 15/14 A30 RMK A01 T01450143  RH  099%=      5-min Rain = 0
KCL2 240528Z 01010KT 15/14 A30 RMK A01 T01450143  RH  099%=      5-min Rain = 0.01
KCL2 240529Z 02008KT 14/14 A30 RMK A01 T01440143  RH  099%=      5-min Rain = 0
KCL2 240530Z 02007KT 15/14 A30 RMK A01 T01450144  RH  099%=      5-min Rain = 0
KCL2 240531Z 03007KT 14/14 A30 RMK A01 T01440143  RH  099%=      5-min Rain = 0.01
KCL2 240532Z 03008KT 14/14 A30 RMK A01 T01440143  RH  099%=      5-min Rain = 0
KCL2 240533Z 03007KT 15/14 A30 RMK A01 T01450143  RH  099%=      5-min Rain = 0
KCL2 240534Z 02009KT 14/14 A30 RMK A01 T01440143  RH  099%=      5-min Rain = 0.01
KCL2 240535Z 03011KT 15/14 A30 RMK A01 T01450143  RH  099%=      5-min Rain = 0
KCL2 240536Z 03011KT 14/14 A2999 RMK A01 T01440143  RH  099%=      5-min Rain = 0
KCL2 240537Z 03011KT 15/14 A2999 RMK A01 T01450143  RH  099%=      5-min Rain = 0
KCL2 240538Z 03012KT 14/14 A2999 RMK A01 T01440142  RH  099%=      5-min Rain = 0.01
KCL2 240539Z 03011KT 15/14 A2998 RMK A01 T01450143  RH  099%=      5-min Rain = 0
KCL2 240540Z 03010KT 15/14 A2998 RMK A01 T01450143  RH  099%=      5-min Rain = 0
KCL2 240541Z 03011KT 15/14 A2999 RMK A01 T01450143  RH  099%=      5-min Rain = 0
KCL2 240542Z 02008KT 15/14 A2999 RMK A01 T01450143  RH  099%=      5-min Rain = 0.01
KCL2 240543Z 01007KT 14/14 A30 RMK A01 T01440142  RH  099%=      5-min Rain = 0
KCL2 240544Z 01006KT 14/14 A30 RMK A01 T01440143  RH  099%=      5-min Rain = 0
KCL2 240545Z 01005KT 15/14 A30 RMK A01 T01450143  RH  099%=      5-min Rain = 0
KCL2 240546Z 01005KT 15/14 A3001 RMK A01 T01450143  RH  099%=      5-min Rain = 0
KCL2 240547Z 01004KT 14/14 A3001 RMK A01 T01440143  RH  099%=      5-min Rain = 0
KCL2 240548Z 01004KT 14/14 A3002 RMK A01 T01440143  RH  099%=      5-min Rain = 0.01
KCL2 240549Z 01003KT 15/14 A3002 RMK A01 T01450143  RH  099%=      5-min Rain = 0
KCL2 240550Z 34003KT 15/14 A3002 RMK A01 T01450143  RH  099%=      5-min Rain = 0
KCL2 240551Z 35003KT 14/14 A3002 RMK A01 T01440143  RH  099%=      5-min Rain = 0
KCL2 240552Z 33003KT 14/14 A3002 RMK A01 T01440142  RH  099%=      5-min Rain = 0
KCL2 240553Z 33003KT 14/14 A3003 RMK A01 T01440142  RH  099%=      5-min Rain = 0
KCL2 240554Z 32003KT 14/14 A3003 RMK A01 T01440142  RH  099%=      5-min Rain = 0
KCL2 240555Z 33004KT 14/14 A3003 RMK A01 T01440142  RH  099%=      5-min Rain = 0
KCL2 240556Z 32004KT 14/14 A3003 RMK A01 T01440142  RH  099%=      5-min Rain = 0
KCL2 240557Z 33003KT 14/14 A3003 RMK A01 T01440142  RH  099%=      5-min Rain = 0
KCL2 240558Z 35004KT 14/14 A3002 RMK A01 T01440142  RH  099%=      5-min Rain = 0.01
KCL2 240559Z 36004KT 14/14 A3002 RMK A01 T01440142  RH  099%=      5-min Rain = 0
KCL2 240600Z 01005KT 14/14 A3002 RMK A01 T01440142  RH  099%=      5-min Rain = 0
KCL2 240601Z 02004KT 14/14 A3001 RMK A01 T01440142  RH  099%=      5-min Rain = 0
KCL2 240602Z 02004KT 14/14 A3001 RMK A01 T01440142  RH  099%=      5-min Rain = 0
KCL2 240603Z 02005KT 14/14 A3001 RMK A01 T01430142  RH  099%=      5-min Rain = 0
KCL2 240604Z 03005KT 14/14 A3001 RMK A01 T01440142  RH  099%=      5-min Rain = 0
KCL2 240605Z 03004KT 14/14 A3001 RMK A01 T01440142  RH  099%=      5-min Rain = 0
KCL2 240606Z 02005KT 14/14 A3001 RMK A01 T01440142  RH  099%=      5-min Rain = 0
KCL2 240607Z 03006KT 14/14 A3001 RMK A01 T01440143  RH  099%=      5-min Rain = 0
KCL2 240608Z 04007KT 14/14 A30 RMK A01 T01440143  RH  099%=      5-min Rain = 0
KCL2 240609Z 03007KT 14/14 A30 RMK A01 T01440143  RH  099%=      5-min Rain = 0
KCL2 240610Z 04005KT 14/14 A30 RMK A01 T01440142  RH  099%=      5-min Rain = 0
KCL2 240611Z 05005KT 14/14 A30 RMK A01 T01440142  RH  099%=      5-min Rain = 0.01
KCL2 240612Z 05005KT 14/14 A30 RMK A01 T01440143  RH  099%=      5-min Rain = 0
KCL2 240613Z 05005KT 14/14 A30 RMK A01 T01440143  RH  099%=      5-min Rain = 0
KCL2 240614Z 07005KT 14/14 A30 RMK A01 T01440143  RH  099%=      5-min Rain = 0
KCL2 240615Z 07006KT 14/14 A3001 RMK A01 T01440143  RH  099%=      5-min Rain = 0
KCL2 240616Z 07005KT 14/14 A3001 RMK A01 T01440143  RH  099%=      5-min Rain = 0
KCL2 240617Z 07005KT 14/14 A3001 RMK A01 T01440142  RH  099%=      5-min Rain = 0
KCL2 240618Z 08006KT 14/14 A3001 RMK A01 T01440142  RH  099%=      5-min Rain = 0.01
KCL2 240619Z 08006KT 14/14 A3001 RMK A01 T01440142  RH  099%=      5-min Rain = 0
KCL2 240620Z 09005KT 14/14 A3001 RMK A01 T01440142  RH  099%=      5-min Rain = 0
KCL2 240621Z 10005KT 15/14 A3001 RMK A01 T01450143  RH  099%=      5-min Rain = 0
KCL2 240622Z 10005KT 15/14 A3001 RMK A01 T01450143  RH  099%=      5-min Rain = 0.01
KCL2 240623Z 10005KT 15/14 A3001 RMK A01 T01450143  RH  099%=      5-min Rain = 0
KCL2 240624Z 10005KT 14/14 A3001 RMK A01 T01440142  RH  099%=      5-min Rain = 0
KCL2 240625Z 10006KT 14/14 A3001 RMK A01 T01440142  RH  099%=      5-min Rain = 0
KCL2 240626Z 10005KT 14/14 A3001 RMK A01 T01440142  RH  099%=      5-min Rain = 0
KCL2 240627Z 10006KT 14/14 A3001 RMK A01 T01440142  RH  099%=      5-min Rain = 0
KCL2 240628Z 09006KT 14/14 A3001 RMK A01 T01440142  RH  099%=      5-min Rain = 0.01
KCL2 240629Z 09006KT 14/14 A3001 RMK A01 T01440142  RH  099%=      5-min Rain = 0
KCL2 240630Z 09006KT 14/14 A3001 RMK A01 T01440142  RH  099%=      5-min Rain = 0
KCL2 240631Z 09006KT 14/14 A3001 RMK A01 T01440142  RH  099%=      5-min Rain = 0
KCL2 240632Z 09007KT 14/14 A3001 RMK A01 T01430142  RH  099%=      5-min Rain = 0
KCL2 240633Z 09006KT 14/14 A3001 RMK A01 T01440142  RH  099%=      5-min Rain = 0
KCL2 240634Z 09006KT 14/14 A3001 RMK A01 T01440142  RH  099%=      5-min Rain = 0.01
KCL2 240635Z 10006KT 14/14 A3001 RMK A01 T01440142  RH  099%=      5-min Rain = 0
KCL2 240636Z 10005KT 14/14 A3002 RMK A01 T01440142  RH  099%=      5-min Rain = 0
KCL2 240637Z 10006KT 14/14 A3002 RMK A01 T01440142  RH  099%=      5-min Rain = 0
KCL2 240638Z 10006KT 14/14 A3002 RMK A01 T01440142  RH  099%=      5-min Rain = 0
KCL2 240639Z 10005KT 14/14 A3002 RMK A01 T01440142  RH  099%=      5-min Rain = 0
KCL2 240640Z 10005KT 14/14 A3002 RMK A01 T01440142  RH  099%=      5-min Rain = 0
KCL2 240641Z 09004KT 14/14 A3002 RMK A01 T01440142  RH  099%=      5-min Rain = 0.01
KCL2 240642Z 09005KT 14/14 A3002 RMK A01 T01440142  RH  099%=      5-min Rain = 0
KCL2 240643Z 07004KT 14/14 A3001 RMK A01 T01440142  RH  099%=      5-min Rain = 0
KCL2 240644Z 05005KT 14/14 A3001 RMK A01 T01440142  RH  099%=      5-min Rain = 0
KCL2 240645Z 03005KT 14/14 A3001 RMK A01 T01440142  RH  099%=      5-min Rain = 0
KCL2 240646Z 02006KT 14/14 A3001 RMK A01 T01440142  RH  099%=      5-min Rain = 0.01
KCL2 240647Z 02008KT 14/14 A30 RMK A01 T01440142  RH  099%=      5-min Rain = 0
KCL2 240648Z 02008KT 14/14 A30 RMK A01 T01440142  RH  099%=      5-min Rain = 0
KCL2 240649Z 02008KT 14/14 A30 RMK A01 T01440143  RH  099%=      5-min Rain = 0
KCL2 240650Z 01007KT 14/14 A30 RMK A01 T01430142  RH  099%=      5-min Rain = 0.01
KCL2 240651Z 01007KT 14/14 A30 RMK A01 T01440143  RH  099%=      5-min Rain = 0
KCL2 240652Z 01008KT 14/14 A30 RMK A01 T01440143  RH  099%=      5-min Rain = 0
KCL2 240653Z 00008KT 14/14 A2999 RMK A01 T01440143  RH  099%=      5-min Rain = 0.01
KCL2 240654Z 00008KT 14/14 A2999 RMK A01 T01430143  RH  099%=      5-min Rain = 0
KCL2 240655Z 01008KT 14/14 A2999 RMK A01 T01430142  RH  099%=      5-min Rain = 0.01
KCL2 240656Z 01008KT 14/14 A2998 RMK A01 T01430142  RH  099%=      5-min Rain = 0
KCL2 240657Z 01009KT 14/14 A2998 RMK A01 T01430143  RH  100%=      5-min Rain = 0
KCL2 240658Z 02009KT 14/14 A2997 RMK A01 T01430142  RH  100%=      5-min Rain = 0.01
KCL2 240659Z 02009KT 14/14 A2997 RMK A01 T01430142  RH  100%=      5-min Rain = 0
KCL2 240700Z 03009KT 14/14 A2997 RMK A01 T01430142  RH  100%=      5-min Rain = 0
KCL2 240701Z 03010KT 14/14 A2996 RMK A01 T01430142  RH  100%=      5-min Rain = 0
KCL2 240702Z 04010KT 14/14 A2996 RMK A01 T01420142  RH  100%=      5-min Rain = 0.01
KCL2 240703Z 04011KT 14/14 A2996 RMK A01 T01420142  RH  100%=      5-min Rain = 0
KCL2 240704Z 04010KT 14/14 A2996 RMK A01 T01420141  RH  100%=      5-min Rain = 0
KCL2 240705Z 05010KT 14/14 A2996 RMK A01 T01420141  RH  100%=      5-min Rain = 0
KCL2 240706Z 05010KT 14/14 A2996 RMK A01 T01420141  RH  100%=      5-min Rain = 0.01
KCL2 240707Z 05010KT 14/14 A2996 RMK A01 T01420142  RH  100%=      5-min Rain = 0
KCL2 240708Z 05011KT 14/14 A2996 RMK A01 T01420141  RH  100%=      5-min Rain = 0
KCL2 240709Z 05010KT 14/14 A2996 RMK A01 T01420141  RH  100%=      5-min Rain = 0.01
KCL2 240710Z 05009KT 14/14 A2996 RMK A01 T01420141  RH  100%=      5-min Rain = 0
KCL2 240711Z 06010KT 14/14 A2996 RMK A01 T01420142  RH  100%=      5-min Rain = 0
KCL2 240712Z 05010KT 14/14 A2996 RMK A01 T01420141  RH  100%=      5-min Rain = 0
KCL2 240713Z 05009KT 14/14 A2996 RMK A01 T01420142  RH  100%=      5-min Rain = 0
KCL2 240714Z 05008KT 14/14 A2996 RMK A01 T01420141  RH  100%=      5-min Rain = 0
KCL2 240715Z 05009KT 14/14 A2996 RMK A01 T01420141  RH  100%=      5-min Rain = 0.01
KCL2 240716Z 05011KT 14/14 A2996 RMK A01 T01420141  RH  100%=      5-min Rain = 0
KCL2 240717Z 04009KT 14/14 A2996 RMK A01 T01420141  RH  100%=      5-min Rain = 0
KCL2 240718Z 04011KT 14/14 A2996 RMK A01 T01420141  RH  100%=      5-min Rain = 0
KCL2 240719Z 05011KT 14/14 A2996 RMK A01 T01420141  RH  100%=      5-min Rain = 0
KCL2 240720Z 06010KT 14/14 A2996 RMK A01 T01420141  RH  100%=      5-min Rain = 0.01
KCL2 240721Z 06011KT 14/14 A2996 RMK A01 T01420142  RH  100%=      5-min Rain = 0
KCL2 240722Z 06010KT 14/14 A2996 RMK A01 T01420142  RH  100%=      5-min Rain = 0
KCL2 240723Z 07012KT 14/14 A2996 RMK A01 T01420142  RH  100%=      5-min Rain = 0
KCL2 240724Z 06012KT 14/14 A2996 RMK A01 T01420142  RH  100%=      5-min Rain = 0
KCL2 240725Z 07013KT 14/14 A2996 RMK A01 T01420142  RH  100%=      5-min Rain = 0
KCL2 240726Z 07011KT 14/14 A2996 RMK A01 T01420142  RH  100%=      5-min Rain = 0.01
KCL2 240727Z 07011KT 14/14 A2996 RMK A01 T01420142  RH  100%=      5-min Rain = 0
KCL2 240728Z 07010KT 14/14 A2996 RMK A01 T01420141  RH  099%=      5-min Rain = 0
KCL2 240729Z 08009KT 14/14 A2996 RMK A01 T01420142  RH  099%=      5-min Rain = 0
KCL2 240730Z 09011KT 14/14 A2996 RMK A01 T01420141  RH  099%=      5-min Rain = 0
KCL2 240731Z 08012KT 14/14 A2996 RMK A01 T01430142  RH  099%=      5-min Rain = 0
KCL2 240732Z 09009KT 14/14 A2996 RMK A01 T01430142  RH  099%=      5-min Rain = 0
KCL2 240733Z 09011KT 14/14 A2996 RMK A01 T01430142  RH  099%=      5-min Rain = 0
KCL2 240734Z 09011KT 14/14 A2995 RMK A01 T01430142  RH  099%=      5-min Rain = 0
KCL2 240735Z 09011KT 14/14 A2995 RMK A01 T01430142  RH  099%=      5-min Rain = 0
KCL2 240736Z 09014KT 14/14 A2995 RMK A01 T01430142  RH  099%=      5-min Rain = 0
KCL2 240737Z 09012KT 14/14 A2994 RMK A01 T01430142  RH  099%=      5-min Rain = 0
KCL2 240738Z 10013KT 14/14 A2994 RMK A01 T01430142  RH  099%=      5-min Rain = 0.01
KCL2 240739Z 09013KT 14/14 A2994 RMK A01 T01430142  RH  099%=      5-min Rain = 0
KCL2 240740Z 09011KT 14/14 A2994 RMK A01 T01430142  RH  099%=      5-min Rain = 0
KCL2 240741Z 10012KT 14/14 A2993 RMK A01 T01430142  RH  100%=      5-min Rain = 0
KCL2 240742Z 09015KT 14/14 A2993 RMK A01 T01430142  RH  100%=      5-min Rain = 0
KCL2 240743Z 09015KT 14/14 A2992 RMK A01 T01430142  RH  100%=      5-min Rain = 0
KCL2 240744Z 09014KT 14/14 A2992 RMK A01 T01430142  RH  100%=      5-min Rain = 0
KCL2 240745Z 09012KT 14/14 A2992 RMK A01 T01430142  RH  100%=      5-min Rain = 0
KCL2 240746Z 08012KT 14/14 A2992 RMK A01 T01430142  RH  100%=      5-min Rain = 0
KCL2 240747Z 09013G18KT 14/14 A2992 RMK A01 T01430142  RH  100%=      5-min Rain = 0
KCL2 240748Z 10014KT 14/14 A2992 RMK A01 T01430142  RH  100%=      5-min Rain = 0
KCL2 240749Z 10013KT 14/14 A2992 RMK A01 T01430142  RH  100%=      5-min Rain = 0
KCL2 240750Z 09013G18KT 14/14 A2992 RMK A01 T01430142  RH  100%=      5-min Rain = 0
KCL2 240751Z 10014KT 14/14 A2992 RMK A01 T01430142  RH  100%=      5-min Rain = 0
KCL2 240752Z 09014KT 14/14 A2992 RMK A01 T01430142  RH  100%=      5-min Rain = 0
KCL2 240753Z 10012KT 14/14 A2991 RMK A01 T01430142  RH  100%=      5-min Rain = 0
KCL2 240754Z 11013KT 14/14 A2991 RMK A01 T01420142  RH  100%=      5-min Rain = 0
KCL2 240755Z 11011KT 14/14 A2991 RMK A01 T01420142  RH  100%=      5-min Rain = 0
KCL2 240756Z 11011KT 14/14 A2991 RMK A01 T01420142  RH  100%=      5-min Rain = 0
KCL2 240757Z 12013KT 14/14 A2991 RMK A01 T01420142  RH  100%=      5-min Rain = 0
KCL2 240758Z 12011KT 14/14 A2991 RMK A01 T01420142  RH  100%=      5-min Rain = 0.01
KCL2 240759Z 12013KT 14/14 A2991 RMK A01 T01420142  RH  100%=      5-min Rain = 0
KCL2 240800Z 12012KT 14/14 A2991 RMK A01 T01420142  RH  100%=      5-min Rain = 0
KCL2 240801Z 12011KT 14/14 A2991 RMK A01 T01420142  RH  100%=      5-min Rain = 0
KCL2 240802Z 12013KT 14/14 A2991 RMK A01 T01420142  RH  100%=      5-min Rain = 0
KCL2 240803Z 12014KT 14/14 A2991 RMK A01 T01420142  RH  100%=      5-min Rain = 0
KCL2 240804Z 12010KT 14/14 A2991 RMK A01 T01420142  RH  100%=      5-min Rain = 0
KCL2 240805Z 13011KT 14/14 A2992 RMK A01 T01420142  RH  100%=      5-min Rain = 0
KCL2 240806Z 12014KT 14/14 A2992 RMK A01 T01420142  RH  100%=      5-min Rain = 0
KCL2 240807Z 13013KT 14/14 A2992 RMK A01 T01420142  RH  100%=      5-min Rain = 0
KCL2 240808Z 12013KT 14/14 A2992 RMK A01 T01420142  RH  100%=      5-min Rain = 0
KCL2 240809Z 13011KT 14/14 A2992 RMK A01 T01420142  RH  100%=      5-min Rain = 0
KCL2 240810Z 12013KT 14/14 A2992 RMK A01 T01420142  RH  100%=      5-min Rain = 0
KCL2 240811Z 12015KT 14/14 A2992 RMK A01 T01420142  RH  100%=      5-min Rain = 0
KCL2 240812Z 12014KT 14/14 A2993 RMK A01 T01420142  RH  100%=      5-min Rain = 0.01
KCL2 240813Z 12012KT 14/14 A2993 RMK A01 T01420142  RH  100%=      5-min Rain = 0
KCL2 240814Z 12010KT 14/14 A2993 RMK A01 T01430143  RH  100%=      5-min Rain = 0
KCL2 240815Z 13012KT 14/14 A2994 RMK A01 T01430143  RH  100%=      5-min Rain = 0
KCL2 240816Z 13010KT 14/14 A2994 RMK A01 T01430143  RH  100%=      5-min Rain = 0
KCL2 240817Z 14013KT 14/14 A2994 RMK A01 T01430143  RH  100%=      5-min Rain = 0
KCL2 240818Z 14013KT 14/14 A2995 RMK A01 T01430143  RH  100%=      5-min Rain = 0
KCL2 240819Z 15013KT 14/14 A2995 RMK A01 T01430143  RH  100%=      5-min Rain = 0
KCL2 240820Z 16012KT 14/14 A2994 RMK A01 T01430143  RH  100%=      5-min Rain = 0
KCL2 240821Z 15012KT 14/14 A2994 RMK A01 T01430143  RH  100%=      5-min Rain = 0
KCL2 240822Z 14011KT 14/14 A2995 RMK A01 T01430143  RH  100%=      5-min Rain = 0.01
KCL2 240823Z 14009KT 14/14 A2995 RMK A01 T01430143  RH  100%=      5-min Rain = 0
KCL2 240824Z 14008KT 14/14 A2996 RMK A01 T01440144  RH  100%=      5-min Rain = 0
KCL2 240825Z 13008KT 14/14 A2996 RMK A01 T01440144  RH  100%=      5-min Rain = 0
KCL2 240826Z 12009KT 14/14 A2996 RMK A01 T01440144  RH  100%=      5-min Rain = 0
KCL2 240827Z 13010KT 14/14 A2996 RMK A01 T01440144  RH  100%=      5-min Rain = 0
KCL2 240828Z 12009KT 14/14 A2996 RMK A01 T01440144  RH  100%=      5-min Rain = 0.01
KCL2 240829Z 12010KT 14/14 A2996 RMK A01 T01440144  RH  100%=      5-min Rain = 0
KCL2 240830Z 13009KT 14/14 A2995 RMK A01 T01440144  RH  100%=      5-min Rain = 0
KCL2 240831Z 13007KT 14/14 A2996 RMK A01 T01440144  RH  100%=      5-min Rain = 0
KCL2 240832Z 14007KT 14/14 A2996 RMK A01 T01440144  RH  100%=      5-min Rain = 0
KCL2 240833Z 13009KT 15/15 A2996 RMK A01 T01450145  RH  100%=      5-min Rain = 0
KCL2 240834Z 13010KT 15/15 A2995 RMK A01 T01450145  RH  100%=      5-min Rain = 0
KCL2 240835Z 13012KT 15/15 A2995 RMK A01 T01450145  RH  100%=      5-min Rain = 0
KCL2 240836Z 14011KT 14/14 A2995 RMK A01 T01440144  RH  100%=      5-min Rain = 0
KCL2 240837Z 14009KT 14/14 A2995 RMK A01 T01440144  RH  100%=      5-min Rain = 0
KCL2 240838Z 16010KT 15/15 A2995 RMK A01 T01450145  RH  100%=      5-min Rain = 0
KCL2 240839Z 16009KT 15/15 A2995 RMK A01 T01450145  RH  100%=      5-min Rain = 0.01
KCL2 240840Z 16009KT 15/15 A2995 RMK A01 T01450145  RH  100%=      5-min Rain = 0
KCL2 240841Z 15010KT 15/15 A2995 RMK A01 T01450145  RH  100%=      5-min Rain = 0
KCL2 240842Z 15010KT 15/15 A2995 RMK A01 T01450145  RH  100%=      5-min Rain = 0
KCL2 240843Z 15006KT 15/15 A2995 RMK A01 T01450145  RH  100%=      5-min Rain = 0
KCL2 240844Z 14006KT 14/14 A2996 RMK A01 T01440144  RH  100%=      5-min Rain = 0
KCL2 240845Z 14007KT 15/15 A2996 RMK A01 T01450145  RH  100%=      5-min Rain = 0
KCL2 240846Z 15005KT 15/15 A2996 RMK A01 T01450145  RH  100%=      5-min Rain = 0
KCL2 240847Z 16006KT 15/14 A2996 RMK A01 T01450144  RH  100%=      5-min Rain = 0.01
KCL2 240848Z 16007KT 14/14 A2996 RMK A01 T01440144  RH  100%=      5-min Rain = 0
KCL2 240849Z 17006KT 15/15 A2996 RMK A01 T01450145  RH  100%=      5-min Rain = 0
KCL2 240850Z 17005KT 15/15 A2996 RMK A01 T01450145  RH  100%=      5-min Rain = 0
KCL2 240851Z 18005KT 15/15 A2996 RMK A01 T01450145  RH  100%=      5-min Rain = 0
KCL2 240852Z 18004KT 15/15 A2996 RMK A01 T01450145  RH  100%=      5-min Rain = 0
KCL2 240853Z 18004KT 15/15 A2996 RMK A01 T01450145  RH  100%=      5-min Rain = 0
KCL2 240854Z 17004KT 15/15 A2996 RMK A01 T01450145  RH  100%=      5-min Rain = 0.01
KCL2 240855Z 17003KT 15/15 A2995 RMK A01 T01450145  RH  100%=      5-min Rain = 0
KCL2 240856Z 16002KT 15/15 A2996 RMK A01 T01450145  RH  100%=      5-min Rain = 0
KCL2 240857Z 14003KT 15/15 A2995 RMK A01 T01450145  RH  100%=      5-min Rain = 0
KCL2 240858Z 14002KT 15/15 A2995 RMK A01 T01450145  RH  100%=      5-min Rain = 0
KCL2 240859Z 13002KT 15/15 A2995 RMK A01 T01450145  RH  100%=      5-min Rain = 0
KCL2 240900Z 11002KT 15/14 A2995 RMK A01 T01450144  RH  100%=      5-min Rain = 0.01
KCL2 240901Z 10002KT 15/14 A2995 RMK A01 T01450144  RH  100%=      5-min Rain = 0
KCL2 240902Z 11002KT 14/14 A2995 RMK A01 T01440144  RH  100%=      5-min Rain = 0
KCL2 240903Z 09002KT 15/14 A2995 RMK A01 T01450144  RH  100%=      5-min Rain = 0
KCL2 240904Z 11002KT 15/14 A2995 RMK A01 T01450144  RH  100%=      5-min Rain = 0
KCL2 240905Z 09002KT 14/14 A2995 RMK A01 T01440144  RH  100%=      5-min Rain = 0
KCL2 240906Z 07001KT 15/14 A2995 RMK A01 T01450144  RH  100%=      5-min Rain = 0.01
KCL2 240907Z 06001KT 14/14 A2995 RMK A01 T01440144  RH  100%=      5-min Rain = 0
KCL2 240908Z 06002KT 15/14 A2995 RMK A01 T01450144  RH  100%=      5-min Rain = 0
KCL2 240909Z 07001KT 15/14 A2995 RMK A01 T01450144  RH  100%=      5-min Rain = 0
KCL2 240910Z 05003KT 14/14 A2995 RMK A01 T01440144  RH  100%=      5-min Rain = 0
KCL2 240911Z 06003KT 15/15 A2994 RMK A01 T01450145  RH  100%=      5-min Rain = 0.01
KCL2 240912Z 06004KT 15/15 A2994 RMK A01 T01450145  RH  100%=      5-min Rain = 0
KCL2 240913Z 06005KT 15/15 A2994 RMK A01 T01450145  RH  100%=      5-min Rain = 0
KCL2 240914Z 06006KT 15/15 A2994 RMK A01 T01450145  RH  100%=      5-min Rain = 0
KCL2 240915Z 06006KT 15/15 A2993 RMK A01 T01450145  RH  100%=      5-min Rain = 0
KCL2 240916Z 05006KT 15/15 A2993 RMK A01 T01460145  RH  100%=      5-min Rain = 0
KCL2 240917Z 06006KT 15/15 A2993 RMK A01 T01460145  RH  100%=      5-min Rain = 0
KCL2 240918Z 06006KT 15/15 A2993 RMK A01 T01460146  RH  100%=      5-min Rain = 0.01
KCL2 240919Z 06006KT 15/15 A2993 RMK A01 T01460146  RH  100%=      5-min Rain = 0
KCL2 240920Z 06005KT 15/15 A2993 RMK A01 T01460146  RH  100%=      5-min Rain = 0
KCL2 240921Z 06005KT 15/15 A2993 RMK A01 T01460146  RH  100%=      5-min Rain = 0
KCL2 240922Z 06005KT 15/15 A2993 RMK A01 T01460146  RH  100%=      5-min Rain = 0
KCL2 240923Z 07005KT 15/15 A2993 RMK A01 T01460145  RH  100%=      5-min Rain = 0
KCL2 240924Z 07005KT 15/15 A2993 RMK A01 T01450145  RH  100%=      5-min Rain = 0
KCL2 240925Z 08006KT 15/15 A2993 RMK A01 T01460145  RH  100%=      5-min Rain = 0
KCL2 240926Z 08004KT 15/15 A2993 RMK A01 T01460146  RH  100%=      5-min Rain = 0
KCL2 240927Z 09005KT 15/15 A2993 RMK A01 T01450145  RH  100%=      5-min Rain = 0.01
KCL2 240928Z 09004KT 15/15 A2993 RMK A01 T01460145  RH  100%=      5-min Rain = 0
KCL2 240929Z 11004KT 15/15 A2993 RMK A01 T01450145  RH  100%=      5-min Rain = 0
KCL2 240930Z 12006KT 15/15 A2993 RMK A01 T01450145  RH  100%=      5-min Rain = 0
KCL2 240931Z 12006KT 15/15 A2993 RMK A01 T01460145  RH  100%=      5-min Rain = 0
KCL2 240932Z 12005KT 15/15 A2993 RMK A01 T01450145  RH  100%=      5-min Rain = 0
KCL2 240933Z 11006KT 15/15 A2993 RMK A01 T01450145  RH  100%=      5-min Rain = 0
KCL2 240934Z 11006KT 15/15 A2993 RMK A01 T01450145  RH  100%=      5-min Rain = 0
KCL2 240935Z 12007KT 15/15 A2993 RMK A01 T01450145  RH  100%=      5-min Rain = 0
KCL2 240936Z 13007KT 15/15 A2994 RMK A01 T01450145  RH  100%=      5-min Rain = 0
KCL2 240937Z 14007KT 15/15 A2994 RMK A01 T01450145  RH  100%=      5-min Rain = 0.01
KCL2 240938Z 13008KT 15/15 A2993 RMK A01 T01450145  RH  100%=      5-min Rain = 0
KCL2 240939Z 13008KT 15/14 A2993 RMK A01 T01450144  RH  100%=      5-min Rain = 0
KCL2 240940Z 13009KT 14/14 A2993 RMK A01 T01440144  RH  100%=      5-min Rain = 0
KCL2 240941Z 13010KT 15/15 A2993 RMK A01 T01450145  RH  100%=      5-min Rain = 0
KCL2 240942Z 13010KT 14/14 A2993 RMK A01 T01440144  RH  100%=      5-min Rain = 0
KCL2 240943Z 13011KT 15/14 A2993 RMK A01 T01450144  RH  100%=      5-min Rain = 0.01
KCL2 240944Z 13012KT 15/15 A2993 RMK A01 T01450145  RH  100%=      5-min Rain = 0
KCL2 240945Z 12011KT 14/14 A2993 RMK A01 T01440144  RH  100%=      5-min Rain = 0
KCL2 240946Z 12013KT 14/14 A2993 RMK A01 T01440144  RH  100%=      5-min Rain = 0
KCL2 240947Z 12012KT 14/14 A2993 RMK A01 T01440144  RH  100%=      5-min Rain = 0
KCL2 240948Z 12011KT 14/14 A2992 RMK A01 T01440144  RH  100%=      5-min Rain = 0.01
KCL2 240949Z 12013KT 14/14 A2992 RMK A01 T01440144  RH  100%=      5-min Rain = 0
KCL2 240950Z 13014KT 14/14 A2992 RMK A01 T01440144  RH  100%=      5-min Rain = 0
KCL2 240951Z 13013KT 14/14 A2992 RMK A01 T01440144  RH  100%=      5-min Rain = 0
KCL2 240952Z 12012KT 14/14 A2992 RMK A01 T01440144  RH  100%=      5-min Rain = 0
KCL2 240953Z 12014KT 14/14 A2992 RMK A01 T01440144  RH  100%=      5-min Rain = 0
KCL2 240954Z 12015KT 14/14 A2992 RMK A01 T01440144  RH  100%=      5-min Rain = 0
KCL2 240955Z 13013G19KT 14/14 A2992 RMK A01 T01440144  RH  100%=      5-min Rain = 0
KCL2 240956Z 13014KT 14/14 A2992 RMK A01 T01440144  RH  100%=      5-min Rain = 0
KCL2 240957Z 13013KT 14/14 A2992 RMK A01 T01440144  RH  100%=      5-min Rain = 0
KCL2 240958Z 13014KT 14/14 A2991 RMK A01 T01440144  RH  100%=      5-min Rain = 0
KCL2 240959Z 13015KT 14/14 A2991 RMK A01 T01440144  RH  100%=      5-min Rain = 0
KCL2 241000Z 14014KT 14/14 A2991 RMK A01 T01440144  RH  100%=      5-min Rain = 0.01
KCL2 241001Z 15013KT 14/14 A2992 RMK A01 T01440144  RH  100%=      5-min Rain = 0
KCL2 241002Z 16015G21KT 14/14 A2992 RMK A01 T01440144  RH  100%=      5-min Rain = 0
KCL2 241003Z 16014KT 14/14 A2992 RMK A01 T01440144  RH  100%=      5-min Rain = 0
KCL2 241004Z 16012KT 14/14 A2993 RMK A01 T01440144  RH  100%=      5-min Rain = 0
KCL2 241005Z 16011KT 15/14 A2993 RMK A01 T01450144  RH  100%=      5-min Rain = 0
KCL2 241006Z 15010KT 15/15 A2993 RMK A01 T01450145  RH  100%=      5-min Rain = 0
KCL2 241007Z 15012KT 15/15 A2993 RMK A01 T01450145  RH  100%=      5-min Rain = 0
KCL2 241008Z 16013KT 15/15 A2993 RMK A01 T01450145  RH  100%=      5-min Rain = 0
KCL2 241009Z 16011KT 15/15 A2993 RMK A01 T01450145  RH  100%=      5-min Rain = 0
KCL2 241010Z 16011G16KT 15/15 A2993 RMK A01 T01450145  RH  100%=      5-min Rain = 0
KCL2 241011Z 17009KT 15/15 A2994 RMK A01 T01460145  RH  100%=      5-min Rain = 0
KCL2 241012Z 19010KT 15/15 A2995 RMK A01 T01460145  RH  100%=      5-min Rain = 0
KCL2 241013Z 19009KT 15/15 A2995 RMK A01 T01460145  RH  100%=      5-min Rain = 0
KCL2 241014Z 18008KT 15/15 A2995 RMK A01 T01460145  RH  100%=      5-min Rain = 0
KCL2 241015Z 16010KT 15/15 A2994 RMK A01 T01460146  RH  100%=      5-min Rain = 0
KCL2 241016Z 16010KT 15/15 A2994 RMK A01 T01460145  RH  100%=      5-min Rain = 0
KCL2 241017Z 16009KT 15/15 A2993 RMK A01 T01460145  RH  100%=      5-min Rain = 0.01
KCL2 241018Z 16008KT 15/15 A2994 RMK A01 T01460145  RH  100%=      5-min Rain = 0
KCL2 241019Z 18008KT 15/15 A2995 RMK A01 T01460145  RH  100%=      5-min Rain = 0
KCL2 241020Z 18006KT 15/15 A2995 RMK A01 T01460146  RH  100%=      5-min Rain = 0
KCL2 241021Z 19008KT 15/15 A2995 RMK A01 T01460146  RH  100%=      5-min Rain = 0
KCL2 241022Z 18010KT 15/15 A2994 RMK A01 T01460146  RH  100%=      5-min Rain = 0
KCL2 241023Z 17010KT 15/15 A2994 RMK A01 T01460146  RH  100%=      5-min Rain = 0
KCL2 241024Z 17011KT 15/15 A2993 RMK A01 T01460146  RH  100%=      5-min Rain = 0
KCL2 241025Z 15008KT 15/15 A2993 RMK A01 T01460146  RH  099%=      5-min Rain = 0
KCL2 241026Z 16010KT 15/15 A2993 RMK A01 T01460146  RH  099%=      5-min Rain = 0
KCL2 241027Z 17005G10KT 15/15 A2994 RMK A01 T01460146  RH  099%=      5-min Rain = 0
KCL2 241028Z 26004KT 15/15 A2995 RMK A01 T01460145  RH  099%=      5-min Rain = 0
KCL2 241029Z 28008KT 15/15 A2996 RMK A01 T01460145  RH  099%=      5-min Rain = 0.01
KCL2 241030Z 27008KT 15/15 A2995 RMK A01 T01460145  RH  099%=      5-min Rain = 0
KCL2 241031Z 26006KT 15/15 A2995 RMK A01 T01470146  RH  099%=      5-min Rain = 0
KCL2 241032Z 27006KT 15/15 A2995 RMK A01 T01460145  RH  099%=      5-min Rain = 0
KCL2 241033Z 27007KT 15/15 A2996 RMK A01 T01460145  RH  099%=      5-min Rain = 0
KCL2 241034Z 28007KT 15/15 A2996 RMK A01 T01460145  RH  099%=      5-min Rain = 0
KCL2 241035Z 29009KT 15/15 A2997 RMK A01 T01460145  RH  099%=      5-min Rain = 0
KCL2 241036Z 30008KT 15/15 A2997 RMK A01 T01460145  RH  099%=      5-min Rain = 0
KCL2 241037Z 28008KT 15/15 A2997 RMK A01 T01460145  RH  099%=      5-min Rain = 0
KCL2 241038Z 28009KT 15/15 A2997 RMK A01 T01450145  RH  099%=      5-min Rain = 0
KCL2 241039Z 27008KT 15/15 A2996 RMK A01 T01460145  RH  099%=      5-min Rain = 0.01
KCL2 241040Z 24006KT 15/15 A2996 RMK A01 T01450145  RH  100%=      5-min Rain = 0
KCL2 241041Z 22008KT 15/14 A2995 RMK A01 T01450144  RH  100%=      5-min Rain = 0
KCL2 241042Z 21010KT 15/14 A2995 RMK A01 T01450144  RH  100%=      5-min Rain = 0
KCL2 241043Z 20009KT 15/14 A2995 RMK A01 T01450144  RH  100%=      5-min Rain = 0.01
KCL2 241044Z 18009KT 15/15 A2994 RMK A01 T01450145  RH  100%=      5-min Rain = 0
KCL2 241045Z 17012KT 15/15 A2993 RMK A01 T01450145  RH  100%=      5-min Rain = 0
KCL2 241046Z 15014G19KT 15/15 A2992 RMK A01 T01450145  RH  100%=      5-min Rain = 0
KCL2 241047Z 15014KT 15/14 A2991 RMK A01 T01450144  RH  100%=      5-min Rain = 0
KCL2 241048Z 14014G19KT 15/14 A299 RMK A01 T01450144  RH  099%=      5-min Rain = 0.01
KCL2 241049Z 14016KT 15/14 A299 RMK A01 T01450144  RH  099%=      5-min Rain = 0
KCL2 241050Z 14014KT 15/14 A299 RMK A01 T01450144  RH  099%=      5-min Rain = 0
KCL2 241051Z 15013KT 15/14 A2989 RMK A01 T01450144  RH  099%=      5-min Rain = 0
KCL2 241052Z 15015KT 15/14 A2989 RMK A01 T01450144  RH  099%=      5-min Rain = 0
KCL2 241053Z 15014KT 14/14 A2989 RMK A01 T01440143  RH  099%=      5-min Rain = 0
KCL2 241054Z 15015KT 14/14 A2989 RMK A01 T01440143  RH  099%=      5-min Rain = 0
KCL2 241055Z 15015KT 15/14 A2989 RMK A01 T01450143  RH  099%=      5-min Rain = 0
KCL2 241056Z 15014KT 15/14 A2989 RMK A01 T01450143  RH  099%=      5-min Rain = 0
KCL2 241057Z 15014G19KT 14/14 A2989 RMK A01 T01440143  RH  099%=      5-min Rain = 0
KCL2 241058Z 14016KT 14/14 A2988 RMK A01 T01440143  RH  099%=      5-min Rain = 0
KCL2 241059Z 14013KT 14/14 A2988 RMK A01 T01440143  RH  099%=      5-min Rain = 0
KCL2 241100Z 14013KT 14/14 A2988 RMK A01 T01440142  RH  099%=      5-min Rain = 0
KCL2 241101Z 15013KT 14/14 A2988 RMK A01 T01440142  RH  099%=      5-min Rain = 0
KCL2 241102Z 15017KT 14/14 A2988 RMK A01 T01430142  RH  099%=      5-min Rain = 0
KCL2 241103Z 15014G19KT 14/14 A2987 RMK A01 T01430141  RH  099%=      5-min Rain = 0
KCL2 241104Z 15015KT 14/14 A2988 RMK A01 T01430141  RH  099%=      5-min Rain = 0
KCL2 241105Z 16014KT 14/14 A2988 RMK A01 T01430141  RH  099%=      5-min Rain = 0
KCL2 241106Z 16014KT 14/14 A2988 RMK A01 T01430141  RH  098%=      5-min Rain = 0
KCL2 241107Z 15016KT 14/14 A2988 RMK A01 T01430141  RH  098%=      5-min Rain = 0
KCL2 241108Z 16016KT 14/14 A2989 RMK A01 T01430141  RH  098%=      5-min Rain = 0
KCL2 241109Z 15014G19KT 14/14 A2989 RMK A01 T01430140  RH  098%=      5-min Rain = 0
KCL2 241110Z 15012G17KT 14/14 A2989 RMK A01 T01430141  RH  098%=      5-min Rain = 0
KCL2 241111Z 15012KT 14/14 A2989 RMK A01 T01430141  RH  098%=      5-min Rain = 0
KCL2 241112Z 16013KT 14/14 A299 RMK A01 T01430140  RH  098%=      5-min Rain = 0
KCL2 241113Z 16012G17KT 14/14 A299 RMK A01 T01430140  RH  098%=      5-min Rain = 0
KCL2 241114Z 16015G20KT 14/14 A2991 RMK A01 T01430140  RH  098%=      5-min Rain = 0
KCL2 241115Z 17012G18KT 14/14 A2991 RMK A01 T01430140  RH  098%=      5-min Rain = 0
KCL2 241116Z 16012KT 14/14 A2991 RMK A01 T01430140  RH  098%=      5-min Rain = 0
KCL2 241117Z 16009G14KT 14/14 A2991 RMK A01 T01430140  RH  098%=      5-min Rain = 0
KCL2 241118Z 17006KT 14/14 A2991 RMK A01 T01430140  RH  098%=      5-min Rain = 0
KCL2 241119Z 16004KT 14/14 A2991 RMK A01 T01430140  RH  098%=      5-min Rain = 0
KCL2 241120Z 16006KT 14/14 A2991 RMK A01 T01430140  RH  098%=      5-min Rain = 0
KCL2 241121Z 16007KT 14/14 A2991 RMK A01 T01430140  RH  098%=      5-min Rain = 0
KCL2 241122Z 20005KT 14/14 A2992 RMK A01 T01430140  RH  098%=      5-min Rain = 0
KCL2 241123Z 20004KT 14/14 A2992 RMK A01 T01430140  RH  098%=      5-min Rain = 0
KCL2 241124Z 19002KT 14/14 A2992 RMK A01 T01430140  RH  098%=      5-min Rain = 0
KCL2 241125Z 26001KT 14/14 A2992 RMK A01 T01430140  RH  098%=      5-min Rain = 0
KCL2 241126Z 32002KT 14/14 A2992 RMK A01 T01430140  RH  098%=      5-min Rain = 0
KCL2 241127Z 27002KT 14/14 A2992 RMK A01 T01430139  RH  098%=      5-min Rain = 0
KCL2 241128Z 17001KT 14/14 A2992 RMK A01 T01430139  RH  098%=      5-min Rain = 0
KCL2 241129Z 26002KT 14/14 A2992 RMK A01 T01430139  RH  098%=      5-min Rain = 0
KCL2 241130Z 25004KT 14/14 A2992 RMK A01 T01430139  RH  097%=      5-min Rain = 0
KCL2 241131Z 25004KT 14/14 A2992 RMK A01 T01430138  RH  097%=      5-min Rain = 0
KCL2 241132Z 24002KT 14/14 A2992 RMK A01 T01420138  RH  097%=      5-min Rain = 0
KCL2 241133Z 33001KT 14/14 A2992 RMK A01 T01430138  RH  097%=      5-min Rain = 0
KCL2 241134Z 33001KT 14/14 A2992 RMK A01 T01420138  RH  097%=      5-min Rain = 0
KCL2 241135Z 24003KT 14/14 A2992 RMK A01 T01420138  RH  097%=      5-min Rain = 0
KCL2 241136Z 25003KT 14/14 A2992 RMK A01 T01420137  RH  097%=      5-min Rain = 0
KCL2 241137Z 26004KT 14/14 A2993 RMK A01 T01420137  RH  097%=      5-min Rain = 0
KCL2 241138Z 24006KT 14/14 A2993 RMK A01 T01420137  RH  097%=      5-min Rain = 0
KCL2 241139Z 25006KT 14/14 A2993 RMK A01 T01420136  RH  096%=      5-min Rain = 0
KCL2 241140Z 28005KT 14/14 A2993 RMK A01 T01430137  RH  096%=      5-min Rain = 0
KCL2 241141Z 29007KT 14/14 A2993 RMK A01 T01430137  RH  096%=      5-min Rain = 0
KCL2 241142Z 29008KT 14/14 A2994 RMK A01 T01430137  RH  096%=      5-min Rain = 0
KCL2 241143Z 30007KT 14/14 A2994 RMK A01 T01430137  RH  097%=      5-min Rain = 0
KCL2 241144Z 30005KT 14/14 A2994 RMK A01 T01420138  RH  097%=      5-min Rain = 0
KCL2 241145Z 27005KT 14/14 A2994 RMK A01 T01420138  RH  097%=      5-min Rain = 0
KCL2 241146Z 26006KT 14/14 A2994 RMK A01 T01420138  RH  097%=      5-min Rain = 0
KCL2 241147Z 25006KT 14/14 A2994 RMK A01 T01420139  RH  098%=      5-min Rain = 0
KCL2 241148Z 25008KT 14/14 A2994 RMK A01 T01420139  RH  098%=      5-min Rain = 0
KCL2 241149Z 24006KT 14/14 A2994 RMK A01 T01420139  RH  098%=      5-min Rain = 0
KCL2 241150Z 23006KT 14/14 A2994 RMK A01 T01420139  RH  098%=      5-min Rain = 0
KCL2 241151Z 27007KT 14/14 A2994 RMK A01 T01420139  RH  098%=      5-min Rain = 0
KCL2 241152Z 27005KT 14/14 A2993 RMK A01 T01420138  RH  097%=      5-min Rain = 0
KCL2 241153Z 28002KT 14/14 A2993 RMK A01 T01420138  RH  097%=      5-min Rain = 0
KCL2 241154Z 29002KT 14/14 A2992 RMK A01 T01420138  RH  097%=      5-min Rain = 0
KCL2 241155Z 28002KT 14/14 A2992 RMK A01 T01430138  RH  097%=      5-min Rain = 0
KCL2 241156Z 25004KT 14/14 A2992 RMK A01 T01430138  RH  097%=      5-min Rain = 0
KCL2 241157Z 28001KT 14/14 A2992 RMK A01 T01430136  RH  096%=      5-min Rain = 0
KCL2 241158Z 29003KT 14/14 A2992 RMK A01 T01430136  RH  096%=      5-min Rain = 0
KCL2 241159Z 35002KT 14/14 A2992 RMK A01 T01430136  RH  095%=      5-min Rain = 0
KCL2 241200Z 36004KT 14/14 A2991 RMK A01 T01440137  RH  095%=      5-min Rain = 0
KCL2 241201Z 02004KT 14/14 A2991 RMK A01 T01440137  RH  096%=      5-min Rain = 0
KCL2 241202Z 04002KT 14/14 A299 RMK A01 T01440136  RH  095%=      5-min Rain = 0
KCL2 241203Z 32002KT 14/13 A299 RMK A01 T01440134  RH  094%=      5-min Rain = 0
KCL2 241204Z 31002KT 14/13 A299 RMK A01 T01440133  RH  093%=      5-min Rain = 0
KCL2 241205Z 34003KT 14/13 A2991 RMK A01 T01440133  RH  093%=      5-min Rain = 0
KCL2 241206Z 34003KT 15/14 A299 RMK A01 T01450135  RH  094%=      5-min Rain = 0
KCL2 241207Z 00003KT 14/14 A299 RMK A01 T01440135  RH  094%=      5-min Rain = 0
KCL2 241208Z 02001KT 14/13 A2989 RMK A01 T01440134  RH  094%=      5-min Rain = 0
KCL2 241209Z 05001KT 14/13 A2989 RMK A01 T01440134  RH  094%=      5-min Rain = 0
KCL2 241210Z 07001KT 14/14 A2989 RMK A01 T01440135  RH  094%=      5-min Rain = 0
KCL2 241211Z 05001KT 14/14 A2989 RMK A01 T01440136  RH  095%=      5-min Rain = 0
KCL2 241212Z 34002KT 14/14 A2989 RMK A01 T01440136  RH  095%=      5-min Rain = 0
KCL2 241213Z 32004KT 14/14 A299 RMK A01 T01430135  RH  095%=      5-min Rain = 0
KCL2 241214Z 32004KT 14/14 A299 RMK A01 T01430135  RH  095%=      5-min Rain = 0
KCL2 241215Z 31003KT 14/14 A299 RMK A01 T01420135  RH  095%=      5-min Rain = 0
KCL2 241216Z 30002KT 14/14 A299 RMK A01 T01420135  RH  096%=      5-min Rain = 0
KCL2 241217Z 27001KT 14/14 A299 RMK A01 T01410135  RH  096%=      5-min Rain = 0
KCL2 241218Z 25002KT 14/14 A2991 RMK A01 T01410135  RH  096%=      5-min Rain = 0
KCL2 241219Z 24003KT 14/14 A2991 RMK A01 T01410135  RH  096%=      5-min Rain = 0
KCL2 241220Z 23004KT 14/13 A2992 RMK A01 T01410134  RH  096%=      5-min Rain = 0
KCL2 241221Z 23005KT 14/13 A2992 RMK A01 T01410134  RH  096%=      5-min Rain = 0
KCL2 241222Z 23005KT 14/13 A2992 RMK A01 T01400134  RH  096%=      5-min Rain = 0
KCL2 241223Z 23005KT 14/14 A2993 RMK A01 T01400135  RH  097%=      5-min Rain = 0
KCL2 241224Z 23005KT 14/14 A2993 RMK A01 T01400136  RH  097%=      5-min Rain = 0
KCL2 241225Z 23004KT 14/14 A2993 RMK A01 T01400136  RH  097%=      5-min Rain = 0
KCL2 241226Z 24004KT 14/14 A2993 RMK A01 T01400136  RH  097%=      5-min Rain = 0
KCL2 241227Z 24005KT 14/14 A2994 RMK A01 T01410136  RH  097%=      5-min Rain = 0
KCL2 241228Z 23005KT 14/14 A2994 RMK A01 T01400136  RH  097%=      5-min Rain = 0
KCL2 241229Z 23005KT 14/14 A2994 RMK A01 T01410137  RH  097%=      5-min Rain = 0
KCL2 241230Z 23006KT 14/14 A2994 RMK A01 T01400137  RH  097%=      5-min Rain = 0
KCL2 241231Z 22006KT 14/14 A2994 RMK A01 T01400136  RH  098%=      5-min Rain = 0
KCL2 241232Z 22006KT 14/14 A2995 RMK A01 T01400137  RH  098%=      5-min Rain = 0
KCL2 241233Z 22006KT 14/14 A2995 RMK A01 T01410137  RH  098%=      5-min Rain = 0
KCL2 241234Z 22006KT 14/14 A2995 RMK A01 T01410137  RH  098%=      5-min Rain = 0
KCL2 241235Z 21005KT 14/14 A2995 RMK A01 T01400137  RH  098%=      5-min Rain = 0
KCL2 241236Z 22005KT 14/14 A2995 RMK A01 T01400137  RH  098%=      5-min Rain = 0
KCL2 241237Z 23006KT 14/14 A2995 RMK A01 T01400137  RH  098%=      5-min Rain = 0
KCL2 241238Z 23006KT 14/14 A2995 RMK A01 T01410137  RH  098%=      5-min Rain = 0
KCL2 241239Z 23005KT 14/14 A2995 RMK A01 T01410137  RH  098%=      5-min Rain = 0
KCL2 241240Z 23005KT 14/14 A2995 RMK A01 T01410137  RH  098%=      5-min Rain = 0
KCL2 241241Z 23005KT 14/14 A2995 RMK A01 T01410138  RH  098%=      5-min Rain = 0
KCL2 241242Z 23005KT 14/14 A2995 RMK A01 T01410138  RH  098%=      5-min Rain = 0
KCL2 241243Z 23005KT 14/14 A2995 RMK A01 T01410138  RH  098%=      5-min Rain = 0
KCL2 241244Z 23005KT 14/14 A2995 RMK A01 T01410138  RH  098%=      5-min Rain = 0
KCL2 241245Z 23006KT 14/14 A2995 RMK A01 T01410138  RH  098%=      5-min Rain = 0
KCL2 241246Z 23006KT 14/14 A2995 RMK A01 T01410138  RH  098%=      5-min Rain = 0
KCL2 241247Z 22005KT 14/14 A2995 RMK A01 T01420139  RH  098%=      5-min Rain = 0
KCL2 241248Z 21004KT 14/14 A2995 RMK A01 T01420139  RH  098%=      5-min Rain = 0
KCL2 241249Z 21003KT 14/14 A2995 RMK A01 T01420138  RH  098%=      5-min Rain = 0
KCL2 241250Z 21003KT 14/14 A2995 RMK A01 T01420138  RH  098%=      5-min Rain = 0
KCL2 241251Z 22003KT 14/14 A2995 RMK A01 T01420138  RH  098%=      5-min Rain = 0
KCL2 241252Z 22004KT 14/14 A2995 RMK A01 T01420138  RH  098%=      5-min Rain = 0
KCL2 241253Z 22003KT 14/14 A2994 RMK A01 T01420138  RH  098%=      5-min Rain = 0
KCL2 241254Z 20002KT 14/14 A2994 RMK A01 T01420138  RH  098%=      5-min Rain = 0
KCL2 241255Z 17001KT 14/14 A2994 RMK A01 T01420138  RH  098%=      5-min Rain = 0
KCL2 241256Z 14002KT 14/14 A2994 RMK A01 T01420138  RH  098%=      5-min Rain = 0
KCL2 241257Z 14002KT 14/14 A2994 RMK A01 T01420139  RH  098%=      5-min Rain = 0
KCL2 241258Z 13002KT 14/14 A2994 RMK A01 T01420139  RH  098%=      5-min Rain = 0
KCL2 241259Z 14002KT 14/14 A2994 RMK A01 T01410138  RH  098%=      5-min Rain = 0
KCL2 241300Z 14002KT 14/14 A2994 RMK A01 T01410138  RH  098%=      5-min Rain = 0
KCL2 241301Z 13001KT 14/14 A2994 RMK A01 T01420139  RH  098%=      5-min Rain = 0
KCL2 241302Z 13000KT 14/14 A2993 RMK A01 T01410139  RH  098%=      5-min Rain = 0
KCL2 241303Z 18001KT 14/14 A2993 RMK A01 T01410139  RH  098%=      5-min Rain = 0
KCL2 241304Z 20001KT 14/14 A2993 RMK A01 T01410138  RH  098%=      5-min Rain = 0
KCL2 241305Z 21001KT 14/14 A2993 RMK A01 T01410139  RH  098%=      5-min Rain = 0
KCL2 241306Z 22002KT 14/14 A2993 RMK A01 T01410139  RH  098%=      5-min Rain = 0
KCL2 241307Z 22002KT 14/14 A2993 RMK A01 T01410138  RH  098%=      5-min Rain = 0
KCL2 241308Z 22002KT 14/14 A2993 RMK A01 T01410138  RH  098%=      5-min Rain = 0
KCL2 241309Z 21002KT 14/14 A2993 RMK A01 T01410138  RH  098%=      5-min Rain = 0
KCL2 241310Z 22002KT 14/14 A2994 RMK A01 T01410138  RH  098%=      5-min Rain = 0
KCL2 241311Z 24002KT 14/14 A2994 RMK A01 T01410138  RH  098%=      5-min Rain = 0
KCL2 241312Z 26002KT 14/14 A2994 RMK A01 T01400138  RH  098%=      5-min Rain = 0
KCL2 241313Z 27003KT 14/14 A2994 RMK A01 T01410138  RH  098%=      5-min Rain = 0
KCL2 241314Z 29004KT 14/14 A2994 RMK A01 T01400138  RH  099%=      5-min Rain = 0
KCL2 241315Z 30005KT 14/14 A2994 RMK A01 T01410139  RH  099%=      5-min Rain = 0
KCL2 241316Z 30006KT 14/14 A2994 RMK A01 T01400139  RH  099%=      5-min Rain = 0
KCL2 241317Z 30006KT 14/14 A2993 RMK A01 T01400139  RH  099%=      5-min Rain = 0
KCL2 241318Z 30007KT 14/14 A2993 RMK A01 T01400139  RH  099%=      5-min Rain = 0
KCL2 241319Z 30007KT 14/14 A2993 RMK A01 T01400139  RH  099%=      5-min Rain = 0
KCL2 241320Z 30005KT 14/14 A2993 RMK A01 T01400139  RH  099%=      5-min Rain = 0
KCL2 241321Z 30003KT 14/14 A2993 RMK A01 T01400139  RH  099%=      5-min Rain = 0
KCL2 241322Z 30003KT 14/14 A2992 RMK A01 T01400139  RH  099%=      5-min Rain = 0
KCL2 241323Z 29003KT 14/14 A2992 RMK A01 T01400139  RH  099%=      5-min Rain = 0
KCL2 241324Z 29003KT 14/14 A2992 RMK A01 T01410140  RH  099%=      5-min Rain = 0
KCL2 241325Z 30003KT 14/14 A2992 RMK A01 T01410140  RH  099%=      5-min Rain = 0
KCL2 241326Z 30004KT 14/14 A2992 RMK A01 T01410140  RH  099%=      5-min Rain = 0
KCL2 241327Z 30002KT 14/14 A2992 RMK A01 T01410140  RH  099%=      5-min Rain = 0
KCL2 241328Z 30001KT 14/14 A2991 RMK A01 T01410140  RH  099%=      5-min Rain = 0
KCL2 241329Z 33001KT 14/14 A2991 RMK A01 T01410140  RH  099%=      5-min Rain = 0
KCL2 241330Z 31003KT 14/14 A2992 RMK A01 T01410140  RH  099%=      5-min Rain = 0
KCL2 241331Z 31004KT 14/14 A2992 RMK A01 T01410140  RH  099%=      5-min Rain = 0
KCL2 241332Z 30004KT 14/14 A2993 RMK A01 T01410140  RH  099%=      5-min Rain = 0
KCL2 241333Z 28003KT 14/14 A2993 RMK A01 T01410140  RH  099%=      5-min Rain = 0
KCL2 241334Z 26002KT 14/14 A2993 RMK A01 T01410140  RH  099%=      5-min Rain = 0
KCL2 241335Z 27002KT 14/14 A2993 RMK A01 T01410140  RH  099%=      5-min Rain = 0
KCL2 241336Z 28004KT 14/14 A2994 RMK A01 T01410140  RH  099%=      5-min Rain = 0
KCL2 241337Z 28005KT 14/14 A2994 RMK A01 T01410140  RH  099%=      5-min Rain = 0
KCL2 241338Z 27006KT 14/14 A2994 RMK A01 T01410140  RH  099%=      5-min Rain = 0
KCL2 241339Z 27005KT 14/14 A2994 RMK A01 T01410140  RH  099%=      5-min Rain = 0
KCL2 241340Z 27004KT 14/14 A2993 RMK A01 T01410140  RH  099%=      5-min Rain = 0
KCL2 241341Z 27003KT 14/14 A2993 RMK A01 T01410140  RH  099%=      5-min Rain = 0
KCL2 241342Z 27003KT 14/14 A2993 RMK A01 T01400140  RH  099%=      5-min Rain = 0
KCL2 241343Z 26003KT 14/14 A2993 RMK A01 T01410140  RH  100%=      5-min Rain = 0
KCL2 241344Z 25004KT 14/14 A2993 RMK A01 T01400140  RH  100%=      5-min Rain = 0
KCL2 241345Z 23002KT 14/14 A2993 RMK A01 T01410140  RH  100%=      5-min Rain = 0
KCL2 241346Z 20000KT 14/14 A2993 RMK A01 T01410140  RH  100%=      5-min Rain = 0
KCL2 241347Z 09001KT 14/14 A2992 RMK A01 T01400140  RH  100%=      5-min Rain = 0
KCL2 241348Z 07002KT 14/14 A2992 RMK A01 T01400140  RH  100%=      5-min Rain = 0
KCL2 241349Z 05004KT 14/14 A2991 RMK A01 T01400140  RH  100%=      5-min Rain = 0.01
KCL2 241350Z 04005KT 14/14 A299 RMK A01 T01410140  RH  100%=      5-min Rain = 0
KCL2 241351Z 04006KT 14/14 A299 RMK A01 T01410141  RH  100%=      5-min Rain = 0
KCL2 241352Z 04005KT 14/14 A2989 RMK A01 T01410141  RH  100%=      5-min Rain = 0
KCL2 241353Z 05006KT 14/14 A2989 RMK A01 T01410141  RH  100%=      5-min Rain = 0.01
KCL2 241354Z 05007KT 14/14 A2988 RMK A01 T01420141  RH  100%=      5-min Rain = 0
KCL2 241355Z 04009KT 14/14 A2988 RMK A01 T01420141  RH  100%=      5-min Rain = 0
KCL2 241356Z 05008KT 14/14 A2988 RMK A01 T01420142  RH  100%=      5-min Rain = 0
KCL2 241357Z 06006KT 14/14 A2987 RMK A01 T01420142  RH  100%=      5-min Rain = 0.01
KCL2 241358Z 08006KT 14/14 A2986 RMK A01 T01410141  RH  100%=      5-min Rain = 0
KCL2 241359Z 08006KT 14/14 A2986 RMK A01 T01410141  RH  100%=      5-min Rain = 0
KCL2 241400Z 06008KT 14/14 A2986 RMK A01 T01410141  RH  100%=      5-min Rain = 0
KCL2 241401Z 05010KT 14/14 A2986 RMK A01 T01420142  RH  100%=      5-min Rain = 0
KCL2 241402Z 07011KT 14/14 A2986 RMK A01 T01430143  RH  100%=      5-min Rain = 0
KCL2 241403Z 07011KT 14/14 A2985 RMK A01 T01430143  RH  100%=      5-min Rain = 0
KCL2 241404Z 09010KT 14/14 A2985 RMK A01 T01430143  RH  100%=      5-min Rain = 0
KCL2 241405Z 09010KT 14/14 A2984 RMK A01 T01430142  RH  100%=      5-min Rain = 0
KCL2 241406Z 09011KT 14/14 A2984 RMK A01 T01430142  RH  100%=      5-min Rain = 0
KCL2 241407Z 09012KT 14/14 A2984 RMK A01 T01430142  RH  100%=      5-min Rain = 0
KCL2 241408Z 08011KT 14/14 A2983 RMK A01 T01430142  RH  100%=      5-min Rain = 0
KCL2 241409Z 07012KT 14/14 A2983 RMK A01 T01430142  RH  099%=      5-min Rain = 0
KCL2 241410Z 07011KT 14/14 A2983 RMK A01 T01430142  RH  099%=      5-min Rain = 0
KCL2 241411Z 07010KT 14/14 A2983 RMK A01 T01440142  RH  099%=      5-min Rain = 0
KCL2 241412Z 07012KT 14/14 A2983 RMK A01 T01440142  RH  099%=      5-min Rain = 0
KCL2 241413Z 07013KT 14/14 A2983 RMK A01 T01440142  RH  099%=      5-min Rain = 0
KCL2 241414Z 08011KT 14/14 A2983 RMK A01 T01440142  RH  098%=      5-min Rain = 0
KCL2 241415Z 09010KT 14/14 A2983 RMK A01 T01440141  RH  098%=      5-min Rain = 0
KCL2 241416Z 09010KT 14/14 A2984 RMK A01 T01440141  RH  098%=      5-min Rain = 0
KCL2 241417Z 08007KT 14/14 A2984 RMK A01 T01440141  RH  098%=      5-min Rain = 0
KCL2 241418Z 05005KT 14/14 A2985 RMK A01 T01440141  RH  098%=      5-min Rain = 0
KCL2 241419Z 33004KT 14/14 A2986 RMK A01 T01440141  RH  098%=      5-min Rain = 0
KCL2 241420Z 30012KT 14/14 A2987 RMK A01 T01440142  RH  098%=      5-min Rain = 0
KCL2 241421Z 30012KT 15/14 A2987 RMK A01 T01450143  RH  098%=      5-min Rain = 0
KCL2 241422Z 30011KT 15/14 A2988 RMK A01 T01450143  RH  099%=      5-min Rain = 0
KCL2 241423Z 30012KT 15/14 A2988 RMK A01 T01450143  RH  099%=      5-min Rain = 0
KCL2 241424Z 31011KT 15/14 A2988 RMK A01 T01450143  RH  099%=      5-min Rain = 0
KCL2 241425Z 31011KT 14/14 A2989 RMK A01 T01440143  RH  099%=      5-min Rain = 0
KCL2 241426Z 31013KT 14/14 A2989 RMK A01 T01440142  RH  099%=      5-min Rain = 0
KCL2 241427Z 31011KT 14/14 A2989 RMK A01 T01440142  RH  099%=      5-min Rain = 0
KCL2 241428Z 31013KT 14/14 A2989 RMK A01 T01440142  RH  099%=      5-min Rain = 0
KCL2 241429Z 31012KT 14/14 A2989 RMK A01 T01440142  RH  099%=      5-min Rain = 0
KCL2 241430Z 31011KT 14/14 A2989 RMK A01 T01440142  RH  099%=      5-min Rain = 0
KCL2 241431Z 31012KT 14/14 A2989 RMK A01 T01440142  RH  099%=      5-min Rain = 0
KCL2 241432Z 31013KT 14/14 A2989 RMK A01 T01440142  RH  099%=      5-min Rain = 0
KCL2 241433Z 31014KT 14/14 A2989 RMK A01 T01430142  RH  099%=      5-min Rain = 0
KCL2 241434Z 32013KT 14/14 A2989 RMK A01 T01430141  RH  099%=      5-min Rain = 0
KCL2 241435Z 32009KT 14/14 A2989 RMK A01 T01430141  RH  099%=      5-min Rain = 0
KCL2 241436Z 33009KT 14/14 A2989 RMK A01 T01430141  RH  099%=      5-min Rain = 0
KCL2 241437Z 32009KT 14/14 A2989 RMK A01 T01430141  RH  099%=      5-min Rain = 0
KCL2 241438Z 32011KT 14/14 A299 RMK A01 T01420141  RH  099%=      5-min Rain = 0
KCL2 241439Z 31009KT 14/14 A299 RMK A01 T01420141  RH  099%=      5-min Rain = 0
KCL2 241440Z 30010KT 14/14 A2991 RMK A01 T01420141  RH  099%=      5-min Rain = 0
KCL2 241441Z 30008KT 14/14 A2992 RMK A01 T01420141  RH  099%=      5-min Rain = 0
KCL2 241442Z 29007KT 14/14 A2992 RMK A01 T01410141  RH  099%=      5-min Rain = 0
KCL2 241443Z 30005KT 14/14 A2993 RMK A01 T01410140  RH  099%=      5-min Rain = 0
KCL2 241444Z 32003KT 14/14 A2993 RMK A01 T01410140  RH  100%=      5-min Rain = 0
KCL2 241445Z 35001KT 14/14 A2993 RMK A01 T01410140  RH  100%=      5-min Rain = 0
KCL2 241446Z 31001KT 14/14 A2994 RMK A01 T01410141  RH  100%=      5-min Rain = 0
KCL2 241447Z 29002KT 14/14 A2994 RMK A01 T01410141  RH  100%=      5-min Rain = 0
KCL2 241448Z 26001KT 14/14 A2995 RMK A01 T01410141  RH  100%=      5-min Rain = 0
KCL2 241449Z 16002KT 14/14 A2995 RMK A01 T01410140  RH  100%=      5-min Rain = 0
KCL2 241450Z 17002KT 14/14 A2995 RMK A01 T01410140  RH  100%=      5-min Rain = 0
KCL2 241451Z 20003KT 14/14 A2995 RMK A01 T01410140  RH  100%=      5-min Rain = 0
KCL2 241452Z 21004KT 14/14 A2996 RMK A01 T01410141  RH  100%=      5-min Rain = 0
KCL2 241453Z 23005KT 14/14 A2996 RMK A01 T01420142  RH  100%=      5-min Rain = 0
KCL2 241454Z 23006KT 14/14 A2996 RMK A01 T01430142  RH  100%=      5-min Rain = 0
KCL2 241455Z 23006KT 14/14 A2997 RMK A01 T01430142  RH  100%=      5-min Rain = 0
KCL2 241456Z 24006KT 14/14 A2997 RMK A01 T01430143  RH  100%=      5-min Rain = 0
KCL2 241457Z 24005KT 14/14 A2997 RMK A01 T01430143  RH  100%=      5-min Rain = 0
KCL2 241458Z 25007KT 14/14 A2997 RMK A01 T01430143  RH  100%=      5-min Rain = 0
KCL2 241459Z 24007KT 14/14 A2997 RMK A01 T01430143  RH  100%=      5-min Rain = 0
KCL2 241500Z 24005KT 14/14 A2997 RMK A01 T01430143  RH  100%=      5-min Rain = 0
KCL2 241501Z 23003KT 14/14 A2997 RMK A01 T01430143  RH  100%=      5-min Rain = 0
KCL2 241502Z 19001KT 14/14 A2996 RMK A01 T01430143  RH  100%=      5-min Rain = 0
KCL2 241503Z 18000KT 14/14 A2996 RMK A01 T01430143  RH  099%=      5-min Rain = 0
KCL2 241504Z 24001KT 14/14 A2996 RMK A01 T01430142  RH  099%=      5-min Rain = 0
KCL2 241505Z 23003KT 14/14 A2996 RMK A01 T01430142  RH  099%=      5-min Rain = 0
KCL2 241506Z 23004KT 14/14 A2996 RMK A01 T01430142  RH  099%=      5-min Rain = 0
KCL2 241507Z 22003KT 14/14 A2996 RMK A01 T01440143  RH  099%=      5-min Rain = 0
KCL2 241508Z 19003KT 15/14 A2996 RMK A01 T01450144  RH  099%=      5-min Rain = 0
KCL2 241509Z 17003KT 15/14 A2995 RMK A01 T01450144  RH  099%=      5-min Rain = 0
KCL2 241510Z 16004KT 15/14 A2995 RMK A01 T01450144  RH  099%=      5-min Rain = 0
KCL2 241511Z 16003KT 15/15 A2995 RMK A01 T01460145  RH  099%=      5-min Rain = 0
KCL2 241512Z 16004KT 15/15 A2995 RMK A01 T01470146  RH  099%=      5-min Rain = 0
KCL2 241513Z 18003KT 15/15 A2995 RMK A01 T01470146  RH  099%=      5-min Rain = 0
KCL2 241514Z 19003KT 15/15 A2995 RMK A01 T01470146  RH  099%=      5-min Rain = 0
KCL2 241515Z 23003KT 15/15 A2995 RMK A01 T01470146  RH  099%=      5-min Rain = 0
KCL2 241516Z 23003KT 15/15 A2996 RMK A01 T01470146  RH  099%=      5-min Rain = 0
KCL2 241517Z 23003KT 15/15 A2996 RMK A01 T01480146  RH  099%=      5-min Rain = 0
KCL2 241518Z 20002KT 15/15 A2995 RMK A01 T01470145  RH  099%=      5-min Rain = 0
KCL2 241519Z 19003KT 15/15 A2995 RMK A01 T01470145  RH  099%=      5-min Rain = 0
KCL2 241520Z 19002KT 15/15 A2995 RMK A01 T01470145  RH  098%=      5-min Rain = 0
KCL2 241521Z 19003KT 15/14 A2995 RMK A01 T01470144  RH  098%=      5-min Rain = 0
KCL2 241522Z 21002KT 15/14 A2995 RMK A01 T01470143  RH  098%=      5-min Rain = 0
KCL2 241523Z 19002KT 15/14 A2995 RMK A01 T01470143  RH  098%=      5-min Rain = 0
KCL2 241524Z 16002KT 15/14 A2995 RMK A01 T01470144  RH  098%=      5-min Rain = 0
KCL2 241525Z 12004KT 15/14 A2994 RMK A01 T01470143  RH  097%=      5-min Rain = 0
KCL2 241526Z 10007KT 15/14 A2993 RMK A01 T01470143  RH  097%=      5-min Rain = 0
KCL2 241527Z 10008KT 15/14 A2993 RMK A01 T01480144  RH  097%=      5-min Rain = 0
KCL2 241528Z 09007KT 15/15 A2993 RMK A01 T01490145  RH  097%=      5-min Rain = 0
KCL2 241529Z 08006KT 15/15 A2993 RMK A01 T01510147  RH  098%=      5-min Rain = 0
KCL2 241530Z 09005KT 15/15 A2994 RMK A01 T01510146  RH  097%=      5-min Rain = 0
KCL2 241531Z 09002KT 15/14 A2994 RMK A01 T01500144  RH  096%=      5-min Rain = 0
KCL2 241532Z 08001KT 15/14 A2994 RMK A01 T01500144  RH  096%=      5-min Rain = 0
KCL2 241533Z 12001KT 15/14 A2994 RMK A01 T01490144  RH  096%=      5-min Rain = 0
KCL2 241534Z 09001KT 15/14 A2995 RMK A01 T01490144  RH  097%=      5-min Rain = 0
KCL2 241535Z 09001KT 15/14 A2995 RMK A01 T01490143  RH  096%=      5-min Rain = 0
KCL2 241536Z 08001KT 15/14 A2995 RMK A01 T01490141  RH  095%=      5-min Rain = 0
KCL2 241537Z 02002KT 15/14 A2995 RMK A01 T01490141  RH  095%=      5-min Rain = 0
KCL2 241538Z 01002KT 15/14 A2994 RMK A01 T01490143  RH  096%=      5-min Rain = 0
KCL2 241539Z 01003KT 15/14 A2994 RMK A01 T01500144  RH  096%=      5-min Rain = 0
KCL2 241540Z 01003KT 15/14 A2994 RMK A01 T01500143  RH  095%=      5-min Rain = 0
KCL2 241541Z 01004KT 15/14 A2994 RMK A01 T01490141  RH  095%=      5-min Rain = 0
KCL2 241542Z 02002KT 15/14 A2994 RMK A01 T01490143  RH  096%=      5-min Rain = 0
KCL2 241543Z 02001KT 15/14 A2994 RMK A01 T01490141  RH  095%=      5-min Rain = 0
KCL2 241544Z 04001KT 15/14 A2994 RMK A01 T01490140  RH  094%=      5-min Rain = 0
KCL2 241545Z 04001KT 15/14 A2994 RMK A01 T01490140  RH  094%=      5-min Rain = 0
KCL2 241546Z 03001KT 15/14 A2994 RMK A01 T01490139  RH  094%=      5-min Rain = 0
KCL2 241547Z 03002KT 15/14 A2994 RMK A01 T01490140  RH  094%=      5-min Rain = 0
KCL2 241548Z 01002KT 15/14 A2994 RMK A01 T01490140  RH  094%=      5-min Rain = 0
KCL2 241549Z 01002KT 15/14 A2994 RMK A01 T01500140  RH  094%=      5-min Rain = 0
KCL2 241550Z 02001KT 15/14 A2994 RMK A01 T01500140  RH  094%=      5-min Rain = 0
KCL2 241551Z 02001KT 15/14 A2995 RMK A01 T01500140  RH  094%=      5-min Rain = 0
KCL2 241552Z 04001KT 15/14 A2995 RMK A01 T01500140  RH  094%=      5-min Rain = 0
KCL2 241553Z 04002KT 15/14 A2995 RMK A01 T01490139  RH  093%=      5-min Rain = 0
KCL2 241554Z 05002KT 15/14 A2995 RMK A01 T01490139  RH  093%=      5-min Rain = 0
KCL2 241555Z 06002KT 15/14 A2995 RMK A01 T01490139  RH  093%=      5-min Rain = 0
KCL2 241556Z 07001KT 15/14 A2995 RMK A01 T01500139  RH  093%=      5-min Rain = 0
KCL2 241557Z 10000KT 15/14 A2995 RMK A01 T01500140  RH  094%=      5-min Rain = 0
KCL2 241558Z 12000KT 15/14 A2995 RMK A01 T01500140  RH  094%=      5-min Rain = 0
KCL2 241559Z 13001KT 15/14 A2996 RMK A01 T01500140  RH  093%=      5-min Rain = 0
KCL2 241600Z 15001KT 15/14 A2996 RMK A01 T01500139  RH  093%=      5-min Rain = 0
KCL2 241601Z 16002KT 15/14 A2996 RMK A01 T01500140  RH  094%=      5-min Rain = 0
KCL2 241602Z 17003KT 15/14 A2996 RMK A01 T01510141  RH  094%=      5-min Rain = 0
KCL2 241603Z 19003KT 15/14 A2996 RMK A01 T01510141  RH  094%=      5-min Rain = 0
KCL2 241604Z 19002KT 15/14 A2996 RMK A01 T01500141  RH  094%=      5-min Rain = 0
KCL2 241605Z 19003KT 15/14 A2996 RMK A01 T01510142  RH  095%=      5-min Rain = 0
KCL2 241606Z 20004KT 15/14 A2996 RMK A01 T01500142  RH  095%=      5-min Rain = 0
KCL2 241607Z 21004KT 15/14 A2996 RMK A01 T01500142  RH  095%=      5-min Rain = 0
KCL2 241608Z 21003KT 15/14 A2996 RMK A01 T01500142  RH  095%=      5-min Rain = 0
KCL2 241609Z 21003KT 15/14 A2996 RMK A01 T01490141  RH  095%=      5-min Rain = 0
KCL2 241610Z 23003KT 15/14 A2996 RMK A01 T01490142  RH  095%=      5-min Rain = 0
KCL2 241611Z 22004KT 15/14 A2996 RMK A01 T01490142  RH  095%=      5-min Rain = 0
KCL2 241612Z 21003KT 15/14 A2996 RMK A01 T01490141  RH  095%=      5-min Rain = 0
KCL2 241613Z 19003KT 15/14 A2996 RMK A01 T01490142  RH  096%=      5-min Rain = 0
KCL2 241614Z 21003KT 15/14 A2996 RMK A01 T01490142  RH  095%=      5-min Rain = 0
KCL2 241615Z 21003KT 15/14 A2996 RMK A01 T01490141  RH  095%=      5-min Rain = 0
KCL2 241616Z 21002KT 15/14 A2996 RMK A01 T01490140  RH  095%=      5-min Rain = 0
KCL2 241617Z 21001KT 15/14 A2996 RMK A01 T01490140  RH  095%=      5-min Rain = 0
KCL2 241618Z 23000KT 15/14 A2995 RMK A01 T01490140  RH  095%=      5-min Rain = 0
KCL2 241619Z 27000KT 15/14 A2995 RMK A01 T01490142  RH  095%=      5-min Rain = 0
KCL2 241620Z 26001KT 15/14 A2995 RMK A01 T01490141  RH  095%=      5-min Rain = 0
KCL2 241621Z 27001KT 15/14 A2995 RMK A01 T01490141  RH  095%=      5-min Rain = 0
KCL2 241622Z 28002KT 15/14 A2995 RMK A01 T01490140  RH  094%=      5-min Rain = 0
KCL2 241623Z 29002KT 15/14 A2995 RMK A01 T01490141  RH  095%=      5-min Rain = 0
KCL2 241624Z 31003KT 15/14 A2995 RMK A01 T01500143  RH  096%=      5-min Rain = 0
KCL2 241625Z 32004KT 15/14 A2995 RMK A01 T01500144  RH  096%=      5-min Rain = 0
KCL2 241626Z 33004KT 15/14 A2994 RMK A01 T01500144  RH  096%=      5-min Rain = 0
KCL2 241627Z 34004KT 15/14 A2994 RMK A01 T01500144  RH  096%=      5-min Rain = 0
KCL2 241628Z 33004KT 15/14 A2994 RMK A01 T01500144  RH  097%=      5-min Rain = 0
KCL2 241629Z 32005KT 15/14 A2993 RMK A01 T01490144  RH  096%=      5-min Rain = 0
KCL2 241630Z 32005KT 15/14 A2993 RMK A01 T01490143  RH  096%=      5-min Rain = 0
KCL2 241631Z 31005KT 15/14 A2993 RMK A01 T01490143  RH  096%=      5-min Rain = 0
KCL2 241632Z 32005KT 15/14 A2993 RMK A01 T01490144  RH  097%=      5-min Rain = 0
KCL2 241633Z 32006KT 15/15 A2993 RMK A01 T01500145  RH  097%=      5-min Rain = 0
KCL2 241634Z 32007KT 15/14 A2993 RMK A01 T01500144  RH  096%=      5-min Rain = 0
KCL2 241635Z 32008KT 15/14 A2993 RMK A01 T01500144  RH  097%=      5-min Rain = 0
KCL2 241636Z 32008KT 15/15 A2993 RMK A01 T01500145  RH  097%=      5-min Rain = 0
KCL2 241637Z 32007KT 15/15 A2993 RMK A01 T01500146  RH  097%=      5-min Rain = 0
KCL2 241638Z 32008KT 15/15 A2993 RMK A01 T01500146  RH  097%=      5-min Rain = 0
KCL2 241639Z 31008KT 15/15 A2993 RMK A01 T01490145  RH  097%=      5-min Rain = 0
KCL2 241640Z 31007KT 15/15 A2993 RMK A01 T01490146  RH  098%=      5-min Rain = 0
KCL2 241641Z 33007KT 15/15 A2993 RMK A01 T01490146  RH  098%=      5-min Rain = 0
KCL2 241642Z 33009KT 15/15 A2993 RMK A01 T01490146  RH  098%=      5-min Rain = 0
KCL2 241643Z 33008KT 15/15 A2993 RMK A01 T01490145  RH  098%=      5-min Rain = 0
KCL2 241644Z 33007KT 15/15 A2992 RMK A01 T01480145  RH  098%=      5-min Rain = 0
KCL2 241645Z 34009KT 15/15 A2992 RMK A01 T01490146  RH  098%=      5-min Rain = 0
KCL2 241646Z 34008KT 15/15 A2992 RMK A01 T01480146  RH  098%=      5-min Rain = 0
KCL2 241647Z 34009KT 15/15 A2992 RMK A01 T01480146  RH  099%=      5-min Rain = 0
KCL2 241648Z 34011KT 15/15 A2992 RMK A01 T01480146  RH  099%=      5-min Rain = 0
KCL2 241649Z 34009KT 15/15 A2992 RMK A01 T01470145  RH  098%=      5-min Rain = 0
KCL2 241650Z 34008KT 15/15 A2992 RMK A01 T01470145  RH  099%=      5-min Rain = 0
KCL2 241651Z 34009KT 15/15 A2992 RMK A01 T01470145  RH  099%=      5-min Rain = 0
KCL2 241652Z 34008KT 15/15 A2992 RMK A01 T01470146  RH  099%=      5-min Rain = 0
KCL2 241653Z 34008KT 15/15 A2992 RMK A01 T01470145  RH  099%=      5-min Rain = 0
KCL2 241654Z 34007KT 15/15 A2992 RMK A01 T01470145  RH  099%=      5-min Rain = 0
KCL2 241655Z 34007KT 15/15 A2993 RMK A01 T01470146  RH  099%=      5-min Rain = 0
KCL2 241656Z 35007KT 15/15 A2993 RMK A01 T01480146  RH  099%=      5-min Rain = 0
KCL2 241657Z 35007KT 15/15 A2993 RMK A01 T01470145  RH  099%=      5-min Rain = 0
KCL2 241658Z 35005KT 15/14 A2993 RMK A01 T01460144  RH  099%=      5-min Rain = 0
KCL2 241659Z 33005KT 15/15 A2993 RMK A01 T01470145  RH  099%=      5-min Rain = 0
KCL2 241700Z 33005KT 15/15 A2994 RMK A01 T01470146  RH  099%=      5-min Rain = 0
KCL2 241701Z 33004KT 15/15 A2994 RMK A01 T01470146  RH  099%=      5-min Rain = 0
KCL2 241702Z 32006KT 15/15 A2994 RMK A01 T01480146  RH  099%=      5-min Rain = 0
KCL2 241703Z 32006KT 15/15 A2994 RMK A01 T01470146  RH  099%=      5-min Rain = 0
KCL2 241704Z 32005KT 15/15 A2994 RMK A01 T01470145  RH  099%=      5-min Rain = 0
KCL2 241705Z 32006KT 15/15 A2994 RMK A01 T01480146  RH  099%=      5-min Rain = 0
KCL2 241706Z 30004KT 15/15 A2995 RMK A01 T01470145  RH  099%=      5-min Rain = 0
KCL2 241707Z 30004KT 15/14 A2995 RMK A01 T01470144  RH  098%=      5-min Rain = 0
KCL2 241708Z 30003KT 15/14 A2995 RMK A01 T01470144  RH  098%=      5-min Rain = 0
KCL2 241709Z 30005KT 15/15 A2995 RMK A01 T01470145  RH  099%=      5-min Rain = 0
KCL2 241710Z 30003KT 15/14 A2995 RMK A01 T01470144  RH  098%=      5-min Rain = 0
KCL2 241711Z 28004KT 15/15 A2995 RMK A01 T01470145  RH  098%=      5-min Rain = 0
KCL2 241712Z 30005KT 15/15 A2995 RMK A01 T01470145  RH  098%=      5-min Rain = 0
KCL2 241713Z 31004KT 15/15 A2995 RMK A01 T01470145  RH  098%=      5-min Rain = 0
KCL2 241714Z 30004KT 15/15 A2995 RMK A01 T01470145  RH  098%=      5-min Rain = 0
KCL2 241715Z 30004KT 15/15 A2995 RMK A01 T01470145  RH  098%=      5-min Rain = 0
KCL2 241716Z 30004KT 15/14 A2995 RMK A01 T01470144  RH  098%=      5-min Rain = 0
KCL2 241717Z 30004KT 15/14 A2995 RMK A01 T01470144  RH  098%=      5-min Rain = 0
KCL2 241718Z 31004KT 15/14 A2995 RMK A01 T01470144  RH  098%=      5-min Rain = 0
KCL2 241719Z 31003KT 15/14 A2995 RMK A01 T01470144  RH  098%=      5-min Rain = 0
KCL2 241720Z 33003KT 15/15 A2995 RMK A01 T01490147  RH  099%=      5-min Rain = 0
KCL2 241721Z 32005KT 15/15 A2995 RMK A01 T01490148  RH  099%=      5-min Rain = 0
KCL2 241722Z 32005KT 15/15 A2995 RMK A01 T01490147  RH  099%=      5-min Rain = 0
KCL2 241723Z 32006KT 15/15 A2995 RMK A01 T01490147  RH  099%=      5-min Rain = 0
KCL2 241724Z 33006KT 15/15 A2995 RMK A01 T01490147  RH  098%=      5-min Rain = 0
KCL2 241725Z 33006KT 15/15 A2995 RMK A01 T01490146  RH  098%=      5-min Rain = 0
KCL2 241726Z 33006KT 15/15 A2995 RMK A01 T01490147  RH  099%=      5-min Rain = 0
KCL2 241727Z 33006KT 15/15 A2995 RMK A01 T01500148  RH  099%=      5-min Rain = 0
KCL2 241728Z 31005KT 15/15 A2995 RMK A01 T01490147  RH  098%=      5-min Rain = 0
KCL2 241729Z 32006KT 15/15 A2995 RMK A01 T01490147  RH  099%=      5-min Rain = 0
KCL2 241730Z 32007KT 15/15 A2995 RMK A01 T01500148  RH  098%=      5-min Rain = 0
KCL2 241731Z 32008KT 15/15 A2996 RMK A01 T01500147  RH  099%=      5-min Rain = 0
KCL2 241732Z 32008KT 15/15 A2995 RMK A01 T01490146  RH  098%=      5-min Rain = 0
KCL2 241733Z 32006KT 15/15 A2996 RMK A01 T01480146  RH  098%=      5-min Rain = 0
KCL2 241734Z 31006KT 15/15 A2996 RMK A01 T01480145  RH  098%=      5-min Rain = 0
KCL2 241735Z 31006KT 15/15 A2996 RMK A01 T01480145  RH  098%=      5-min Rain = 0
KCL2 241736Z 32006KT 15/15 A2995 RMK A01 T01470145  RH  099%=      5-min Rain = 0
KCL2 241737Z 32007KT 15/15 A2995 RMK A01 T01480146  RH  099%=      5-min Rain = 0
KCL2 241738Z 31006KT 15/15 A2995 RMK A01 T01470145  RH  099%=      5-min Rain = 0
KCL2 241739Z 32008KT 15/14 A2995 RMK A01 T01460144  RH  098%=      5-min Rain = 0
KCL2 241740Z 32008KT 15/14 A2995 RMK A01 T01460144  RH  099%=      5-min Rain = 0
KCL2 241741Z 32007KT 15/14 A2995 RMK A01 T01460143  RH  099%=      5-min Rain = 0
KCL2 241742Z 31007KT 15/14 A2996 RMK A01 T01460144  RH  099%=      5-min Rain = 0
KCL2 241743Z 31006KT 15/14 A2995 RMK A01 T01460144  RH  099%=      5-min Rain = 0.01
KCL2 241744Z 31005KT 15/14 A2995 RMK A01 T01450143  RH  099%=      5-min Rain = 0
KCL2 241745Z 31007KT 15/14 A2995 RMK A01 T01450144  RH  099%=      5-min Rain = 0
KCL2 241746Z 32008KT 15/14 A2995 RMK A01 T01450143  RH  099%=      5-min Rain = 0
KCL2 241747Z 32009KT 15/14 A2995 RMK A01 T01450143  RH  099%=      5-min Rain = 0
KCL2 241748Z 32008KT 14/14 A2995 RMK A01 T01440142  RH  099%=      5-min Rain = 0
KCL2 241749Z 32008KT 14/14 A2995 RMK A01 T01430142  RH  099%=      5-min Rain = 0
KCL2 241750Z 32007KT 14/14 A2995 RMK A01 T01430142  RH  099%=      5-min Rain = 0
KCL2 241751Z 32007KT 14/14 A2995 RMK A01 T01430142  RH  099%=      5-min Rain = 0
KCL2 241752Z 32006KT 14/14 A2995 RMK A01 T01430142  RH  099%=      5-min Rain = 0
KCL2 241753Z 32007KT 14/14 A2995 RMK A01 T01430142  RH  099%=      5-min Rain = 0.01
KCL2 241754Z 32007KT 14/14 A2995 RMK A01 T01430142  RH  099%=      5-min Rain = 0
KCL2 241755Z 33007KT 14/14 A2995 RMK A01 T01430141  RH  099%=      5-min Rain = 0
KCL2 241756Z 33006KT 14/14 A2995 RMK A01 T01420141  RH  099%=      5-min Rain = 0
KCL2 241757Z 32006KT 14/14 A2995 RMK A01 T01420141  RH  099%=      5-min Rain = 0
KCL2 241758Z 32005KT 14/14 A2996 RMK A01 T01420141  RH  099%=      5-min Rain = 0
KCL2 241759Z 32006KT 14/14 A2996 RMK A01 T01420141  RH  099%=      5-min Rain = 0
KCL2 241800Z 33005KT 14/14 A2995 RMK A01 T01420141  RH  099%=      5-min Rain = 0.01
KCL2 241801Z 33005KT 14/14 A2995 RMK A01 T01420140  RH  099%=      5-min Rain = 0
KCL2 241802Z 31003KT 14/14 A2995 RMK A01 T01410140  RH  099%=      5-min Rain = 0
KCL2 241803Z 33003KT 14/14 A2995 RMK A01 T01420141  RH  099%=      5-min Rain = 0
KCL2 241804Z 32003KT 14/14 A2995 RMK A01 T01420141  RH  099%=      5-min Rain = 0
KCL2 241805Z 32003KT 14/14 A2995 RMK A01 T01420141  RH  099%=      5-min Rain = 0
KCL2 241806Z 31004KT 14/14 A2995 RMK A01 T01420142  RH  100%=      5-min Rain = 0
KCL2 241807Z 32005KT 14/14 A2996 RMK A01 T01430142  RH  100%=      5-min Rain = 0
KCL2 241808Z 31004KT 14/14 A2996 RMK A01 T01430142  RH  100%=      5-min Rain = 0.01
KCL2 241809Z 32004KT 14/14 A2996 RMK A01 T01420141  RH  099%=      5-min Rain = 0
KCL2 241810Z 32004KT 14/14 A2996 RMK A01 T01420141  RH  100%=      5-min Rain = 0
KCL2 241811Z 31005KT 14/14 A2996 RMK A01 T01420142  RH  100%=      5-min Rain = 0
KCL2 241812Z 31006KT 14/14 A2996 RMK A01 T01420142  RH  100%=      5-min Rain = 0
KCL2 241813Z 32004KT 14/14 A2996 RMK A01 T01420142  RH  100%=      5-min Rain = 0
KCL2 241814Z 32004KT 14/14 A2996 RMK A01 T01420141  RH  100%=      5-min Rain = 0
KCL2 241815Z 30005KT 14/14 A2996 RMK A01 T01430142  RH  100%=      5-min Rain = 0
KCL2 241816Z 30007KT 14/14 A2996 RMK A01 T01430142  RH  100%=      5-min Rain = 0
KCL2 241817Z 30007KT 14/14 A2996 RMK A01 T01420141  RH  100%=      5-min Rain = 0
KCL2 241818Z 30006KT 14/14 A2996 RMK A01 T01420141  RH  100%=      5-min Rain = 0.01
KCL2 241819Z 30005KT 14/14 A2996 RMK A01 T01410141  RH  100%=      5-min Rain = 0
KCL2 241820Z 30004KT 14/14 A2996 RMK A01 T01410141  RH  100%=      5-min Rain = 0
KCL2 241821Z 31005KT 14/14 A2996 RMK A01 T01410141  RH  100%=      5-min Rain = 0
KCL2 241822Z 30005KT 14/14 A2996 RMK A01 T01420141  RH  100%=      5-min Rain = 0
KCL2 241823Z 31005KT 14/14 A2996 RMK A01 T01420141  RH  100%=      5-min Rain = 0.01
KCL2 241824Z 31006KT 14/14 A2996 RMK A01 T01420142  RH  100%=      5-min Rain = 0
KCL2 241825Z 31006KT 14/14 A2996 RMK A01 T01420142  RH  100%=      5-min Rain = 0
KCL2 241826Z 32007KT 14/14 A2996 RMK A01 T01420141  RH  100%=      5-min Rain = 0.01
KCL2 241827Z 32006KT 14/14 A2996 RMK A01 T01410140  RH  100%=      5-min Rain = 0
KCL2 241828Z 32006KT 14/14 A2996 RMK A01 T01410140  RH  100%=      5-min Rain = 0.01
KCL2 241829Z 31006KT 14/14 A2996 RMK A01 T01400140  RH  100%=      5-min Rain = 0
KCL2 241830Z 31006KT 14/14 A2996 RMK A01 T01410140  RH  100%=      5-min Rain = 0.01
KCL2 241831Z 31007KT 14/14 A2996 RMK A01 T01400140  RH  100%=      5-min Rain = 0
KCL2 241832Z 31006KT 14/14 A2996 RMK A01 T01400140  RH  100%=      5-min Rain = 0
KCL2 241833Z 32005KT 14/14 A2996 RMK A01 T01410140  RH  100%=      5-min Rain = 0.01
KCL2 241834Z 31007KT 14/14 A2996 RMK A01 T01410140  RH  100%=      5-min Rain = 0
KCL2 241835Z 31006KT 14/14 A2996 RMK A01 T01410141  RH  100%=      5-min Rain = 0
KCL2 241836Z 32005KT 14/14 A2996 RMK A01 T01410141  RH  100%=      5-min Rain = 0
KCL2 241837Z 31006KT 14/14 A2996 RMK A01 T01420142  RH  100%=      5-min Rain = 0
KCL2 241838Z 31006KT 14/14 A2996 RMK A01 T01420142  RH  100%=      5-min Rain = 0.01
KCL2 241839Z 31006KT 14/14 A2996 RMK A01 T01420141  RH  100%=      5-min Rain = 0
KCL2 241840Z 31004KT 14/14 A2996 RMK A01 T01410141  RH  100%=      5-min Rain = 0
KCL2 241841Z 31005KT 14/14 A2996 RMK A01 T01420142  RH  100%=      5-min Rain = 0
KCL2 241842Z 31005KT 14/14 A2996 RMK A01 T01420142  RH  100%=      5-min Rain = 0.01
KCL2 241843Z 31008KT 14/14 A2996 RMK A01 T01420142  RH  100%=      5-min Rain = 0
KCL2 241844Z 32008KT 14/14 A2996 RMK A01 T01410141  RH  100%=      5-min Rain = 0
KCL2 241845Z 31009KT 14/14 A2995 RMK A01 T01410140  RH  100%=      5-min Rain = 0
KCL2 241846Z 31008KT 14/14 A2995 RMK A01 T01400140  RH  100%=      5-min Rain = 0.01
KCL2 241847Z 31007KT 14/14 A2995 RMK A01 T01400139  RH  100%=      5-min Rain = 0
KCL2 241848Z 31006KT 14/14 A2995 RMK A01 T01400139  RH  100%=      5-min Rain = 0
KCL2 241849Z 31006KT 14/14 A2995 RMK A01 T01400140  RH  100%=      5-min Rain = 0
KCL2 241850Z 31006KT 14/14 A2995 RMK A01 T01400140  RH  100%=      5-min Rain = 0
KCL2 241851Z 32006KT 14/14 A2995 RMK A01 T01400140  RH  100%=      5-min Rain = 0.01
KCL2 241852Z 31006KT 14/14 A2995 RMK A01 T01410141  RH  100%=      5-min Rain = 0
KCL2 241853Z 30005KT 14/14 A2995 RMK A01 T01410141  RH  100%=      5-min Rain = 0
KCL2 241854Z 31006KT 14/14 A2995 RMK A01 T01420141  RH  100%=      5-min Rain = 0.01
KCL2 241855Z 31005KT 14/14 A2995 RMK A01 T01420142  RH  100%=      5-min Rain = 0
KCL2 241856Z 30005KT 14/14 A2995 RMK A01 T01420142  RH  100%=      5-min Rain = 0
KCL2 241857Z 29007KT 14/14 A2995 RMK A01 T01420142  RH  100%=      5-min Rain = 0
KCL2 241858Z 30008KT 14/14 A2995 RMK A01 T01420141  RH  100%=      5-min Rain = 0
KCL2 241859Z 31007KT 14/14 A2995 RMK A01 T01410141  RH  100%=      5-min Rain = 0.01
KCL2 241900Z 31007KT 14/14 A2996 RMK A01 T01410141  RH  100%=      5-min Rain = 0
KCL2 241901Z 31007KT 14/14 A2995 RMK A01 T01410141  RH  100%=      5-min Rain = 0.01
KCL2 241902Z 31006KT 14/14 A2995 RMK A01 T01410140  RH  100%=      5-min Rain = 0
KCL2 241903Z 32006KT 14/14 A2995 RMK A01 T01410141  RH  100%=      5-min Rain = 0.01
KCL2 241904Z 31006KT 14/14 A2995 RMK A01 T01420142  RH  100%=      5-min Rain = 0
KCL2 241905Z 31006KT 14/14 A2995 RMK A01 T01420142  RH  100%=      5-min Rain = 0
KCL2 241906Z 32006KT 14/14 A2995 RMK A01 T01420142  RH  100%=      5-min Rain = 0
KCL2 241907Z 32005KT 14/14 A2995 RMK A01 T01410141  RH  100%=      5-min Rain = 0.01
KCL2 241908Z 33006KT 14/14 A2995 RMK A01 T01420141  RH  100%=      5-min Rain = 0
KCL2 241909Z 33005KT 14/14 A2995 RMK A01 T01410141  RH  099%=      5-min Rain = 0
KCL2 241910Z 32007KT 14/14 A2995 RMK A01 T01410140  RH  099%=      5-min Rain = 0.01
KCL2 241911Z 32007KT 14/14 A2995 RMK A01 T01410140  RH  099%=      5-min Rain = 0
KCL2 241912Z 32005KT 14/14 A2995 RMK A01 T01410140  RH  099%=      5-min Rain = 0
KCL2 241913Z 32005KT 14/14 A2995 RMK A01 T01410140  RH  099%=      5-min Rain = 0
KCL2 241914Z 32007KT 14/14 A2995 RMK A01 T01430142  RH  099%=      5-min Rain = 0
KCL2 241915Z 32007KT 14/14 A2995 RMK A01 T01420142  RH  099%=      5-min Rain = 0
KCL2 241916Z 32007KT 14/14 A2995 RMK A01 T01420142  RH  099%=      5-min Rain = 0.01
KCL2 241917Z 33006KT 14/14 A2995 RMK A01 T01420141  RH  099%=      5-min Rain = 0
KCL2 241918Z 34006KT 14/14 A2995 RMK A01 T01420141  RH  099%=      5-min Rain = 0
KCL2 241919Z 34004KT 14/14 A2995 RMK A01 T01420141  RH  099%=      5-min Rain = 0
KCL2 241920Z 35004KT 14/14 A2995 RMK A01 T01420141  RH  099%=      5-min Rain = 0
KCL2 241921Z 35006KT 14/14 A2995 RMK A01 T01430142  RH  099%=      5-min Rain = 0
KCL2 241922Z 34006KT 14/14 A2995 RMK A01 T01420140  RH  099%=      5-min Rain = 0
KCL2 241923Z 34005KT 14/14 A2994 RMK A01 T01410140  RH  099%=      5-min Rain = 0
KCL2 241924Z 33005KT 14/14 A2994 RMK A01 T01410139  RH  099%=      5-min Rain = 0
KCL2 241925Z 33005KT 14/14 A2994 RMK A01 T01410139  RH  099%=      5-min Rain = 0
KCL2 241926Z 34004KT 14/14 A2994 RMK A01 T01410139  RH  099%=      5-min Rain = 0
KCL2 241927Z 35005KT 14/14 A2994 RMK A01 T01410139  RH  099%=      5-min Rain = 0
KCL2 241928Z 34004KT 14/14 A2994 RMK A01 T01420140  RH  099%=      5-min Rain = 0
KCL2 241929Z 34003KT 14/14 A2994 RMK A01 T01420141  RH  099%=      5-min Rain = 0
KCL2 241930Z 34003KT 14/14 A2994 RMK A01 T01430141  RH  099%=      5-min Rain = 0
KCL2 241931Z 35003KT 14/14 A2994 RMK A01 T01440143  RH  099%=      5-min Rain = 0
KCL2 241932Z 34004KT 14/14 A2994 RMK A01 T01440143  RH  099%=      5-min Rain = 0
KCL2 241933Z 33005KT 14/14 A2994 RMK A01 T01440143  RH  099%=      5-min Rain = 0
KCL2 241934Z 33006KT 14/14 A2994 RMK A01 T01440142  RH  099%=      5-min Rain = 0.01
KCL2 241935Z 33006KT 14/14 A2994 RMK A01 T01430141  RH  098%=      5-min Rain = 0
KCL2 241936Z 33005KT 14/14 A2994 RMK A01 T01430141  RH  099%=      5-min Rain = 0
KCL2 241937Z 33006KT 14/14 A2994 RMK A01 T01430140  RH  098%=      5-min Rain = 0
KCL2 241938Z 32006KT 14/14 A2994 RMK A01 T01430141  RH  099%=      5-min Rain = 0
KCL2 241939Z 32007KT 14/14 A2994 RMK A01 T01430141  RH  099%=      5-min Rain = 0
KCL2 241940Z 32007KT 14/14 A2994 RMK A01 T01430141  RH  099%=      5-min Rain = 0
KCL2 241941Z 32007KT 14/14 A2994 RMK A01 T01430141  RH  098%=      5-min Rain = 0
KCL2 241942Z 32006KT 14/14 A2994 RMK A01 T01430140  RH  098%=      5-min Rain = 0
KCL2 241943Z 33006KT 14/14 A2994 RMK A01 T01420140  RH  098%=      5-min Rain = 0
KCL2 241944Z 33007KT 14/14 A2994 RMK A01 T01420139  RH  098%=      5-min Rain = 0
KCL2 241945Z 34006KT 14/14 A2994 RMK A01 T01420139  RH  098%=      5-min Rain = 0
KCL2 241946Z 33006KT 14/14 A2994 RMK A01 T01410138  RH  098%=      5-min Rain = 0
KCL2 241947Z 34006KT 14/14 A2994 RMK A01 T01410138  RH  098%=      5-min Rain = 0
KCL2 241948Z 34006KT 14/14 A2994 RMK A01 T01410138  RH  098%=      5-min Rain = 0
KCL2 241949Z 33006KT 14/14 A2994 RMK A01 T01410139  RH  098%=      5-min Rain = 0
KCL2 241950Z 33006KT 14/14 A2994 RMK A01 T01420139  RH  098%=      5-min Rain = 0
KCL2 241951Z 34006KT 14/14 A2994 RMK A01 T01420139  RH  098%=      5-min Rain = 0
KCL2 241952Z 34005KT 14/14 A2994 RMK A01 T01420139  RH  098%=      5-min Rain = 0
KCL2 241953Z 34006KT 14/14 A2994 RMK A01 T01420139  RH  098%=      5-min Rain = 0
KCL2 241954Z 34005KT 14/14 A2994 RMK A01 T01420138  RH  098%=      5-min Rain = 0
KCL2 241955Z 34005KT 14/14 A2994 RMK A01 T01420138  RH  098%=      5-min Rain = 0
KCL2 241956Z 00004KT 14/14 A2994 RMK A01 T01420139  RH  098%=      5-min Rain = 0
KCL2 241957Z 36005KT 14/14 A2994 RMK A01 T01430140  RH  098%=      5-min Rain = 0
KCL2 241958Z 34006KT 14/14 A2994 RMK A01 T01430140  RH  098%=      5-min Rain = 0
KCL2 241959Z 34005KT 14/14 A2994 RMK A01 T01430140  RH  098%=      5-min Rain = 0
KCL2 242000Z 34004KT 14/14 A2994 RMK A01 T01430139  RH  098%=      5-min Rain = 0.01
KCL2 242001Z 34005KT 14/14 A2994 RMK A01 T01420138  RH  097%=      5-min Rain = 0
KCL2 242002Z 33004KT 14/14 A2995 RMK A01 T01420138  RH  098%=      5-min Rain = 0
KCL2 242003Z 33005KT 14/14 A2995 RMK A01 T01420139  RH  098%=      5-min Rain = 0
KCL2 242004Z 33005KT 14/14 A2995 RMK A01 T01420139  RH  098%=      5-min Rain = 0
KCL2 242005Z 33004KT 14/14 A2995 RMK A01 T01420139  RH  098%=      5-min Rain = 0
KCL2 242006Z 33004KT 14/14 A2995 RMK A01 T01420139  RH  098%=      5-min Rain = 0
KCL2 242007Z 33004KT 14/14 A2995 RMK A01 T01420139  RH  098%=      5-min Rain = 0
KCL2 242008Z 32003KT 14/14 A2995 RMK A01 T01420138  RH  098%=      5-min Rain = 0.01
KCL2 242009Z 32004KT 14/14 A2995 RMK A01 T01420139  RH  098%=      5-min Rain = 0
KCL2 242010Z 32005KT 14/14 A2995 RMK A01 T01420139  RH  098%=      5-min Rain = 0
KCL2 242011Z 32005KT 14/14 A2996 RMK A01 T01420139  RH  098%=      5-min Rain = 0
KCL2 242012Z 32005KT 14/14 A2996 RMK A01 T01420139  RH  098%=      5-min Rain = 0
KCL2 242013Z 32004KT 14/14 A2996 RMK A01 T01420139  RH  098%=      5-min Rain = 0
KCL2 242014Z 32005KT 14/14 A2996 RMK A01 T01430140  RH  098%=      5-min Rain = 0
KCL2 242015Z 32005KT 14/14 A2996 RMK A01 T01430140  RH  098%=      5-min Rain = 0
KCL2 242016Z 32005KT 14/14 A2996 RMK A01 T01420139  RH  098%=      5-min Rain = 0
KCL2 242017Z 32004KT 14/14 A2996 RMK A01 T01430140  RH  098%=      5-min Rain = 0.01
KCL2 242018Z 33003KT 14/14 A2996 RMK A01 T01420140  RH  098%=      5-min Rain = 0
KCL2 242019Z 33005KT 14/14 A2996 RMK A01 T01430141  RH  099%=      5-min Rain = 0
KCL2 242020Z 33004KT 14/14 A2996 RMK A01 T01430140  RH  098%=      5-min Rain = 0
KCL2 242021Z 32005KT 14/14 A2996 RMK A01 T01430140  RH  098%=      5-min Rain = 0
KCL2 242022Z 32005KT 14/14 A2996 RMK A01 T01420139  RH  098%=      5-min Rain = 0
KCL2 242023Z 31005KT 14/14 A2996 RMK A01 T01420140  RH  098%=      5-min Rain = 0
KCL2 242024Z 31006KT 14/14 A2996 RMK A01 T01420140  RH  098%=      5-min Rain = 0.01
KCL2 242025Z 30007KT 14/14 A2996 RMK A01 T01420139  RH  098%=      5-min Rain = 0
KCL2 242026Z 31007KT 14/14 A2996 RMK A01 T01420139  RH  098%=      5-min Rain = 0
KCL2 242027Z 32007KT 14/14 A2996 RMK A01 T01410138  RH  098%=      5-min Rain = 0
KCL2 242028Z 32007KT 14/14 A2996 RMK A01 T01410138  RH  098%=      5-min Rain = 0
KCL2 242029Z 32007KT 14/14 A2996 RMK A01 T01410138  RH  098%=      5-min Rain = 0.01
KCL2 242030Z 32006KT 14/14 A2996 RMK A01 T01410138  RH  098%=      5-min Rain = 0
KCL2 242031Z 31005KT 14/14 A2996 RMK A01 T01410138  RH  098%=      5-min Rain = 0
KCL2 242032Z 32005KT 14/14 A2996 RMK A01 T01400138  RH  098%=      5-min Rain = 0
KCL2 242033Z 32005KT 14/14 A2996 RMK A01 T01400138  RH  098%=      5-min Rain = 0
KCL2 242034Z 32006KT 14/14 A2996 RMK A01 T01410139  RH  099%=      5-min Rain = 0.01
KCL2 242035Z 32006KT 14/14 A2996 RMK A01 T01410139  RH  099%=      5-min Rain = 0
KCL2 242036Z 33004KT 14/14 A2996 RMK A01 T01410139  RH  098%=      5-min Rain = 0
KCL2 242037Z 32004KT 14/14 A2996 RMK A01 T01410139  RH  099%=      5-min Rain = 0
KCL2 242038Z 32004KT 14/14 A2996 RMK A01 T01410139  RH  099%=      5-min Rain = 0
KCL2 242039Z 32004KT 14/14 A2996 RMK A01 T01410139  RH  099%=      5-min Rain = 0
KCL2 242040Z 32005KT 14/14 A2995 RMK A01 T01420140  RH  099%=      5-min Rain = 0
KCL2 242041Z 32005KT 14/14 A2995 RMK A01 T01420140  RH  099%=      5-min Rain = 0
KCL2 242042Z 33005KT 14/14 A2995 RMK A01 T01430141  RH  099%=      5-min Rain = 0.01
KCL2 242043Z 34004KT 14/14 A2995 RMK A01 T01430141  RH  099%=      5-min Rain = 0
KCL2 242044Z 34004KT 14/14 A2996 RMK A01 T01430141  RH  099%=      5-min Rain = 0
KCL2 242045Z 33005KT 14/14 A2996 RMK A01 T01420140  RH  099%=      5-min Rain = 0
KCL2 242046Z 33006KT 14/14 A2996 RMK A01 T01420141  RH  099%=      5-min Rain = 0
KCL2 242047Z 33005KT 14/14 A2996 RMK A01 T01420140  RH  099%=      5-min Rain = 0
KCL2 242048Z 33005KT 14/14 A2996 RMK A01 T01410138  RH  098%=      5-min Rain = 0
KCL2 242049Z 33005KT 14/14 A2996 RMK A01 T01410138  RH  098%=      5-min Rain = 0
KCL2 242050Z 33004KT 14/14 A2996 RMK A01 T01410138  RH  098%=      5-min Rain = 0
KCL2 242051Z 33005KT 14/14 A2996 RMK A01 T01400138  RH  098%=      5-min Rain = 0.01
KCL2 242052Z 33004KT 14/14 A2996 RMK A01 T01400137  RH  098%=      5-min Rain = 0
KCL2 242053Z 34006KT 14/14 A2995 RMK A01 T01400137  RH  098%=      5-min Rain = 0
KCL2 242054Z 34006KT 14/14 A2995 RMK A01 T01390136  RH  098%=      5-min Rain = 0
KCL2 242055Z 33005KT 14/14 A2995 RMK A01 T01390135  RH  098%=      5-min Rain = 0
KCL2 242056Z 34006KT 14/14 A2995 RMK A01 T01390135  RH  098%=      5-min Rain = 0
KCL2 242057Z 33006KT 14/14 A2995 RMK A01 T01390136  RH  098%=      5-min Rain = 0
KCL2 242058Z 33007KT 14/14 A2995 RMK A01 T01390137  RH  098%=      5-min Rain = 0
KCL2 242059Z 33006KT 14/14 A2995 RMK A01 T01400137  RH  098%=      5-min Rain = 0
KCL2 242100Z 33006KT 14/14 A2995 RMK A01 T01400136  RH  098%=      5-min Rain = 0
KCL2 242101Z 33006KT 14/14 A2995 RMK A01 T01400136  RH  098%=      5-min Rain = 0
KCL2 242102Z 33005KT 14/14 A2995 RMK A01 T01400137  RH  098%=      5-min Rain = 0
KCL2 242103Z 33005KT 14/14 A2994 RMK A01 T01400137  RH  098%=      5-min Rain = 0
KCL2 242104Z 32005KT 14/14 A2994 RMK A01 T01400138  RH  098%=      5-min Rain = 0
KCL2 242105Z 32007KT 14/14 A2994 RMK A01 T01400138  RH  099%=      5-min Rain = 0
KCL2 242106Z 33006KT 14/14 A2994 RMK A01 T01400137  RH  098%=      5-min Rain = 0
KCL2 242107Z 32005KT 14/14 A2994 RMK A01 T01400137  RH  098%=      5-min Rain = 0
KCL2 242108Z 33005KT 14/14 A2993 RMK A01 T01400138  RH  099%=      5-min Rain = 0
KCL2 242109Z 32006KT 14/14 A2993 RMK A01 T01410138  RH  099%=      5-min Rain = 0
KCL2 242110Z 33006KT 14/14 A2993 RMK A01 T01410139  RH  099%=      5-min Rain = 0
KCL2 242111Z 32007KT 14/14 A2993 RMK A01 T01410140  RH  099%=      5-min Rain = 0
KCL2 242112Z 32007KT 14/14 A2993 RMK A01 T01410140  RH  099%=      5-min Rain = 0.01
KCL2 242113Z 33007KT 14/14 A2993 RMK A01 T01410140  RH  099%=      5-min Rain = 0
KCL2 242114Z 33007KT 14/14 A2993 RMK A01 T01420140  RH  099%=      5-min Rain = 0
KCL2 242115Z 32006KT 14/14 A2993 RMK A01 T01410140  RH  099%=      5-min Rain = 0
KCL2 242116Z 33006KT 14/14 A2993 RMK A01 T01420140  RH  099%=      5-min Rain = 0
KCL2 242117Z 32007KT 14/14 A2993 RMK A01 T01430141  RH  099%=      5-min Rain = 0
KCL2 242118Z 33007KT 14/14 A2993 RMK A01 T01420140  RH  099%=      5-min Rain = 0
KCL2 242119Z 32005KT 14/14 A2993 RMK A01 T01410138  RH  098%=      5-min Rain = 0
KCL2 242120Z 33005KT 14/14 A2993 RMK A01 T01410138  RH  099%=      5-min Rain = 0
KCL2 242121Z 32006KT 14/14 A2993 RMK A01 T01410138  RH  099%=      5-min Rain = 0
KCL2 242122Z 32006KT 14/14 A2993 RMK A01 T01410139  RH  099%=      5-min Rain = 0
KCL2 242123Z 33007KT 14/14 A2993 RMK A01 T01410138  RH  098%=      5-min Rain = 0
KCL2 242124Z 32007KT 14/14 A2993 RMK A01 T01400138  RH  098%=      5-min Rain = 0
KCL2 242125Z 33006KT 14/14 A2993 RMK A01 T01400137  RH  098%=      5-min Rain = 0
KCL2 242126Z 33007KT 14/14 A2993 RMK A01 T01400137  RH  098%=      5-min Rain = 0
KCL2 242127Z 32006KT 14/14 A2993 RMK A01 T01390136  RH  098%=      5-min Rain = 0
KCL2 242128Z 32006KT 14/14 A2993 RMK A01 T01400137  RH  098%=      5-min Rain = 0
KCL2 242129Z 33007KT 14/14 A2993 RMK A01 T01400136  RH  098%=      5-min Rain = 0
KCL2 242130Z 33006KT 14/14 A2993 RMK A01 T01390136  RH  098%=      5-min Rain = 0
KCL2 242131Z 33006KT 14/14 A2993 RMK A01 T01400136  RH  098%=      5-min Rain = 0
KCL2 242132Z 33005KT 14/14 A2993 RMK A01 T01400136  RH  098%=      5-min Rain = 0
KCL2 242133Z 34006KT 14/14 A2993 RMK A01 T01400137  RH  098%=      5-min Rain = 0
KCL2 242134Z 32005KT 14/14 A2993 RMK A01 T01400137  RH  098%=      5-min Rain = 0
KCL2 242135Z 32006KT 14/14 A2993 RMK A01 T01400138  RH  098%=      5-min Rain = 0
KCL2 242136Z 32007KT 14/14 A2993 RMK A01 T01410139  RH  098%=      5-min Rain = 0
KCL2 242137Z 32007KT 14/14 A2993 RMK A01 T01410138  RH  098%=      5-min Rain = 0
KCL2 242138Z 33008KT 14/14 A2992 RMK A01 T01410138  RH  098%=      5-min Rain = 0
KCL2 242139Z 34008KT 14/14 A2992 RMK A01 T01400136  RH  098%=      5-min Rain = 0
KCL2 242140Z 33008KT 14/14 A2992 RMK A01 T01390135  RH  098%=      5-min Rain = 0
KCL2 242141Z 33006KT 14/14 A2992 RMK A01 T01390135  RH  098%=      5-min Rain = 0
KCL2 242142Z 33007KT 14/14 A2992 RMK A01 T01390136  RH  098%=      5-min Rain = 0
KCL2 242143Z 33007KT 14/14 A2992 RMK A01 T01390136  RH  098%=      5-min Rain = 0
KCL2 242144Z 33006KT 14/14 A2992 RMK A01 T01390136  RH  098%=      5-min Rain = 0
KCL2 242145Z 33007KT 14/14 A2992 RMK A01 T01390136  RH  098%=      5-min Rain = 0
KCL2 242146Z 34005KT 14/14 A2992 RMK A01 T01390136  RH  098%=      5-min Rain = 0
KCL2 242147Z 34005KT 14/14 A2992 RMK A01 T01390136  RH  098%=      5-min Rain = 0
KCL2 242148Z 33005KT 14/14 A2992 RMK A01 T01390136  RH  098%=      5-min Rain = 0
KCL2 242149Z 33006KT 14/14 A2992 RMK A01 T01390136  RH  098%=      5-min Rain = 0
KCL2 242150Z 33007KT 14/14 A2991 RMK A01 T01390136  RH  098%=      5-min Rain = 0
KCL2 242151Z 34006KT 14/14 A2991 RMK A01 T01390136  RH  098%=      5-min Rain = 0
KCL2 242152Z 33006KT 14/14 A2991 RMK A01 T01380136  RH  098%=      5-min Rain = 0
KCL2 242153Z 33006KT 14/14 A2991 RMK A01 T01380136  RH  098%=      5-min Rain = 0
KCL2 242154Z 33005KT 14/14 A2991 RMK A01 T01380136  RH  098%=      5-min Rain = 0
KCL2 242155Z 33008KT 14/14 A2991 RMK A01 T01390137  RH  099%=      5-min Rain = 0
KCL2 242156Z 33006KT 14/14 A2991 RMK A01 T01390137  RH  098%=      5-min Rain = 0
KCL2 242157Z 34006KT 14/14 A2991 RMK A01 T01390136  RH  098%=      5-min Rain = 0
KCL2 242158Z 34006KT 14/14 A2991 RMK A01 T01390136  RH  098%=      5-min Rain = 0
KCL2 242159Z 33006KT 14/14 A299 RMK A01 T01390136  RH  098%=      5-min Rain = 0
KCL2 242200Z 34006KT 14/14 A299 RMK A01 T01400137  RH  098%=      5-min Rain = 0
KCL2 242201Z 34006KT 14/14 A299 RMK A01 T01390136  RH  098%=      5-min Rain = 0
KCL2 242202Z 35006KT 14/14 A299 RMK A01 T01390136  RH  098%=      5-min Rain = 0
KCL2 242203Z 34005KT 14/14 A299 RMK A01 T01390135  RH  098%=      5-min Rain = 0
KCL2 242204Z 35005KT 14/14 A299 RMK A01 T01390135  RH  097%=      5-min Rain = 0
KCL2 242205Z 34005KT 14/14 A299 RMK A01 T01400135  RH  097%=      5-min Rain = 0
KCL2 242206Z 32004KT 14/14 A299 RMK A01 T01400137  RH  098%=      5-min Rain = 0
KCL2 242207Z 32006KT 14/14 A299 RMK A01 T01410137  RH  098%=      5-min Rain = 0
KCL2 242208Z 32006KT 14/14 A299 RMK A01 T01410136  RH  097%=      5-min Rain = 0
KCL2 242209Z 32007KT 14/14 A299 RMK A01 T01400136  RH  097%=      5-min Rain = 0
KCL2 242210Z 32006KT 14/14 A2989 RMK A01 T01410136  RH  097%=      5-min Rain = 0
KCL2 242211Z 32005KT 14/13 A2989 RMK A01 T01400134  RH  097%=      5-min Rain = 0
KCL2 242212Z 33005KT 14/13 A2989 RMK A01 T01400134  RH  096%=      5-min Rain = 0
KCL2 242213Z 32005KT 14/14 A2989 RMK A01 T01400135  RH  097%=      5-min Rain = 0
KCL2 242214Z 32006KT 14/14 A2989 RMK A01 T01400135  RH  097%=      5-min Rain = 0
KCL2 242215Z 32005KT 14/13 A2989 RMK A01 T01400134  RH  096%=      5-min Rain = 0
KCL2 242216Z 31004KT 14/13 A2989 RMK A01 T01400134  RH  096%=      5-min Rain = 0
KCL2 242217Z 32003KT 14/13 A2989 RMK A01 T01400134  RH  096%=      5-min Rain = 0
KCL2 242218Z 30004KT 14/13 A2989 RMK A01 T01400134  RH  096%=      5-min Rain = 0
KCL2 242219Z 31004KT 14/13 A2989 RMK A01 T01400134  RH  096%=      5-min Rain = 0
KCL2 242220Z 31004KT 14/14 A2989 RMK A01 T01400135  RH  096%=      5-min Rain = 0
KCL2 242221Z 30003KT 14/13 A2989 RMK A01 T01400134  RH  096%=      5-min Rain = 0
KCL2 242222Z 30003KT 14/13 A2989 RMK A01 T01400134  RH  096%=      5-min Rain = 0
KCL2 242223Z 30003KT 14/13 A2989 RMK A01 T01400133  RH  096%=      5-min Rain = 0
KCL2 242224Z 31003KT 14/13 A2989 RMK A01 T01400133  RH  096%=      5-min Rain = 0
KCL2 242225Z 33002KT 14/13 A2989 RMK A01 T01400134  RH  096%=      5-min Rain = 0
KCL2 242226Z 35001KT 14/13 A2988 RMK A01 T01400134  RH  096%=      5-min Rain = 0
KCL2 242227Z 35002KT 14/13 A2988 RMK A01 T01400134  RH  096%=      5-min Rain = 0
KCL2 242228Z 35001KT 14/13 A2988 RMK A01 T01400133  RH  095%=      5-min Rain = 0
KCL2 242229Z 35002KT 14/13 A2988 RMK A01 T01400132  RH  095%=      5-min Rain = 0
KCL2 242230Z 34002KT 14/13 A2988 RMK A01 T01400133  RH  095%=      5-min Rain = 0
KCL2 242231Z 00002KT 14/13 A2988 RMK A01 T01400133  RH  096%=      5-min Rain = 0
KCL2 242232Z 00002KT 14/13 A2988 RMK A01 T01400134  RH  096%=      5-min Rain = 0
KCL2 242233Z 01002KT 14/14 A2988 RMK A01 T01410135  RH  096%=      5-min Rain = 0
KCL2 242234Z 01002KT 14/14 A2988 RMK A01 T01410135  RH  096%=      5-min Rain = 0
KCL2 242235Z 01002KT 14/13 A2988 RMK A01 T01410133  RH  095%=      5-min Rain = 0
KCL2 242236Z 00002KT 14/13 A2988 RMK A01 T01400133  RH  095%=      5-min Rain = 0
KCL2 242237Z 36002KT 14/13 A2988 RMK A01 T01400133  RH  095%=      5-min Rain = 0
KCL2 242238Z 36001KT 14/13 A2988 RMK A01 T01400133  RH  095%=      5-min Rain = 0
KCL2 242239Z 34002KT 14/13 A2987 RMK A01 T01410134  RH  095%=      5-min Rain = 0
KCL2 242240Z 34002KT 14/13 A2987 RMK A01 T01410133  RH  095%=      5-min Rain = 0
KCL2 242241Z 35002KT 14/13 A2987 RMK A01 T01400132  RH  094%=      5-min Rain = 0
KCL2 242242Z 36002KT 14/13 A2987 RMK A01 T01410132  RH  095%=      5-min Rain = 0
KCL2 242243Z 01004KT 14/13 A2986 RMK A01 T01400133  RH  095%=      5-min Rain = 0
KCL2 242244Z 02004KT 14/13 A2986 RMK A01 T01410133  RH  095%=      5-min Rain = 0
KCL2 242245Z 01004KT 14/13 A2986 RMK A01 T01400133  RH  095%=      5-min Rain = 0
KCL2 242246Z 00005KT 14/13 A2986 RMK A01 T01410133  RH  095%=      5-min Rain = 0
KCL2 242247Z 35005KT 14/13 A2986 RMK A01 T01410133  RH  095%=      5-min Rain = 0
KCL2 242248Z 35004KT 14/13 A2986 RMK A01 T01410133  RH  095%=      5-min Rain = 0
KCL2 242249Z 35005KT 14/13 A2986 RMK A01 T01410133  RH  095%=      5-min Rain = 0
KCL2 242250Z 35004KT 14/13 A2986 RMK A01 T01410134  RH  096%=      5-min Rain = 0
KCL2 242251Z 35006KT 14/13 A2985 RMK A01 T01410134  RH  095%=      5-min Rain = 0
KCL2 242252Z 35005KT 14/13 A2985 RMK A01 T01410133  RH  095%=      5-min Rain = 0
KCL2 242253Z 00005KT 14/13 A2985 RMK A01 T01410134  RH  096%=      5-min Rain = 0
KCL2 242254Z 01004KT 14/13 A2985 RMK A01 T01410134  RH  096%=      5-min Rain = 0
KCL2 242255Z 01004KT 14/14 A2985 RMK A01 T01410135  RH  096%=      5-min Rain = 0
KCL2 242256Z 01004KT 14/13 A2985 RMK A01 T01410134  RH  096%=      5-min Rain = 0
KCL2 242257Z 00003KT 14/13 A2985 RMK A01 T01410134  RH  096%=      5-min Rain = 0
KCL2 242258Z 34003KT 14/14 A2985 RMK A01 T01420135  RH  096%=      5-min Rain = 0
KCL2 242259Z 01004KT 14/14 A2985 RMK A01 T01420135  RH  095%=      5-min Rain = 0
KCL2 242300Z 00003KT 14/13 A2985 RMK A01 T01420134  RH  095%=      5-min Rain = 0
KCL2 242301Z 36003KT 14/13 A2985 RMK A01 T01410133  RH  095%=      5-min Rain = 0
KCL2 242302Z 36003KT 14/13 A2985 RMK A01 T01410133  RH  094%=      5-min Rain = 0
KCL2 242303Z 35004KT 14/13 A2985 RMK A01 T01420133  RH  095%=      5-min Rain = 0
KCL2 242304Z 34004KT 14/13 A2985 RMK A01 T01410132  RH  094%=      5-min Rain = 0
KCL2 242305Z 34005KT 14/13 A2985 RMK A01 T01420133  RH  095%=      5-min Rain = 0
KCL2 242306Z 34005KT 14/13 A2985 RMK A01 T01420133  RH  095%=      5-min Rain = 0
KCL2 242307Z 34006KT 14/13 A2985 RMK A01 T01420134  RH  095%=      5-min Rain = 0
KCL2 242308Z 34006KT 14/14 A2985 RMK A01 T01420135  RH  095%=      5-min Rain = 0
KCL2 242309Z 34006KT 14/14 A2985 RMK A01 T01430136  RH  095%=      5-min Rain = 0
KCL2 242310Z 34007KT 14/14 A2985 RMK A01 T01430135  RH  095%=      5-min Rain = 0
KCL2 242311Z 34007KT 14/14 A2985 RMK A01 T01430136  RH  095%=      5-min Rain = 0
KCL2 242312Z 34007KT 14/14 A2985 RMK A01 T01430136  RH  095%=      5-min Rain = 0
KCL2 242313Z 33006KT 14/14 A2985 RMK A01 T01420135  RH  095%=      5-min Rain = 0
KCL2 242314Z 33007KT 14/14 A2985 RMK A01 T01420135  RH  096%=      5-min Rain = 0
KCL2 242315Z 33007KT 14/14 A2985 RMK A01 T01420135  RH  095%=      5-min Rain = 0
KCL2 242316Z 34007KT 14/14 A2985 RMK A01 T01420135  RH  095%=      5-min Rain = 0
KCL2 242317Z 34007KT 14/14 A2985 RMK A01 T01420135  RH  095%=      5-min Rain = 0
KCL2 242318Z 34007KT 14/14 A2985 RMK A01 T01420135  RH  096%=      5-min Rain = 0
KCL2 242319Z 34007KT 14/14 A2985 RMK A01 T01420135  RH  095%=      5-min Rain = 0
KCL2 242320Z 35007KT 14/13 A2985 RMK A01 T01420134  RH  095%=      5-min Rain = 0
KCL2 242321Z 34007KT 14/13 A2985 RMK A01 T01420134  RH  095%=      5-min Rain = 0
KCL2 242322Z 34008KT 14/13 A2985 RMK A01 T01420134  RH  095%=      5-min Rain = 0
KCL2 242323Z 34007KT 14/13 A2985 RMK A01 T01410132  RH  094%=      5-min Rain = 0
KCL2 242324Z 34008KT 14/13 A2985 RMK A01 T01410132  RH  094%=      5-min Rain = 0
KCL2 242325Z 34008KT 14/13 A2985 RMK A01 T01410132  RH  094%=      5-min Rain = 0
KCL2 242326Z 33006KT 14/13 A2986 RMK A01 T01410132  RH  094%=      5-min Rain = 0
KCL2 242327Z 32006KT 14/13 A2986 RMK A01 T01410134  RH  095%=      5-min Rain = 0
KCL2 242328Z 32007KT 14/13 A2986 RMK A01 T01410134  RH  096%=      5-min Rain = 0
KCL2 242329Z 32006KT 14/14 A2986 RMK A01 T01420135  RH  096%=      5-min Rain = 0
KCL2 242330Z 32006KT 14/14 A2986 RMK A01 T01410135  RH  096%=      5-min Rain = 0
KCL2 242331Z 32007KT 14/14 A2986 RMK A01 T01420136  RH  096%=      5-min Rain = 0
KCL2 242332Z 32007KT 14/14 A2986 RMK A01 T01420136  RH  096%=      5-min Rain = 0
KCL2 242333Z 32006KT 14/14 A2986 RMK A01 T01420135  RH  096%=      5-min Rain = 0
KCL2 242334Z 33006KT 14/14 A2986 RMK A01 T01420135  RH  095%=      5-min Rain = 0
KCL2 242335Z 33005KT 14/14 A2986 RMK A01 T01420135  RH  096%=      5-min Rain = 0
KCL2 242336Z 32008KT 14/14 A2986 RMK A01 T01420136  RH  096%=      5-min Rain = 0
KCL2 242337Z 32010KT 14/14 A2986 RMK A01 T01420135  RH  095%=      5-min Rain = 0
KCL2 242338Z 32009KT 14/13 A2986 RMK A01 T01420133  RH  094%=      5-min Rain = 0
KCL2 242339Z 32008KT 14/13 A2986 RMK A01 T01410131  RH  094%=      5-min Rain = 0
KCL2 242340Z 32006KT 14/13 A2986 RMK A01 T01410131  RH  094%=      5-min Rain = 0
KCL2 242341Z 34006KT 14/13 A2986 RMK A01 T01410131  RH  094%=      5-min Rain = 0
KCL2 242342Z 34007KT 14/13 A2986 RMK A01 T01420133  RH  094%=      5-min Rain = 0
KCL2 242343Z 34006KT 14/13 A2986 RMK A01 T01410132  RH  094%=      5-min Rain = 0
KCL2 242344Z 32006KT 14/13 A2986 RMK A01 T01420133  RH  094%=      5-min Rain = 0
KCL2 242345Z 32007KT 14/13 A2986 RMK A01 T01420134  RH  095%=      5-min Rain = 0
KCL2 242346Z 32008KT 14/13 A2986 RMK A01 T01420134  RH  095%=      5-min Rain = 0
KCL2 242347Z 32007KT 14/13 A2986 RMK A01 T01420133  RH  094%=      5-min Rain = 0
KCL2 242348Z 31007KT 14/13 A2986 RMK A01 T01410133  RH  095%=      5-min Rain = 0
KCL2 242349Z 33007KT 14/13 A2986 RMK A01 T01410134  RH  095%=      5-min Rain = 0
KCL2 242350Z 33007KT 14/13 A2986 RMK A01 T01410134  RH  095%=      5-min Rain = 0
KCL2 242351Z 32006KT 14/13 A2986 RMK A01 T01420134  RH  095%=      5-min Rain = 0
KCL2 242352Z 33005KT 14/13 A2986 RMK A01 T01410134  RH  095%=      5-min Rain = 0
KCL2 242353Z 32005KT 14/14 A2986 RMK A01 T01420135  RH  096%=      5-min Rain = 0
KCL2 242354Z 32004KT 14/14 A2986 RMK A01 T01420136  RH  096%=      5-min Rain = 0
KCL2 242355Z 32005KT 14/14 A2986 RMK A01 T01420136  RH  096%=      5-min Rain = 0
KCL2 242356Z 32005KT 14/14 A2986 RMK A01 T01420135  RH  095%=      5-min Rain = 0
KCL2 242357Z 30005KT 14/13 A2986 RMK A01 T01420134  RH  095%=      5-min Rain = 0
KCL2 242358Z 31004KT 14/13 A2986 RMK A01 T01420134  RH  095%=      5-min Rain = 0
KCL2 242359Z 31004KT 14/14 A2986 RMK A01 T01420135  RH  095%=      5-min Rain = 0
KCL2 250000Z 31005KT 14/14 A2986 RMK A01 T01420135  RH  095%=      5-min Rain = 0
KCL2 250001Z 31005KT 14/14 A2986 RMK A01 T01420135  RH  095%=      5-min Rain = 0
KCL2 250002Z 32005KT 14/13 A2986 RMK A01 T01420134  RH  095%=      5-min Rain = 0
KCL2 250003Z 33004KT 14/13 A2986 RMK A01 T01420134  RH  095%=      5-min Rain = 0
KCL2 250004Z 33004KT 14/13 A2986 RMK A01 T01420134  RH  095%=      5-min Rain = 0
KCL2 250005Z 33004KT 14/13 A2986 RMK A01 T01410134  RH  095%=      5-min Rain = 0
KCL2 250006Z 30005KT 14/13 A2986 RMK A01 T01420134  RH  095%=      5-min Rain = 0
KCL2 250007Z 30005KT 14/13 A2986 RMK A01 T01420134  RH  095%=      5-min Rain = 0
KCL2 250008Z 30005KT 14/13 A2986 RMK A01 T01410134  RH  095%=      5-min Rain = 0
KCL2 250009Z 31005KT 14/13 A2986 RMK A01 T01420134  RH  095%=      5-min Rain = 0
KCL2 250010Z 31006KT 14/14 A2986 RMK A01 T01420135  RH  096%=      5-min Rain = 0
KCL2 250011Z 32007KT 14/13 A2986 RMK A01 T01420134  RH  095%=      5-min Rain = 0
KCL2 250012Z 33006KT 14/13 A2986 RMK A01 T01420134  RH  095%=      5-min Rain = 0
KCL2 250013Z 34007KT 14/14 A2986 RMK A01 T01420135  RH  095%=      5-min Rain = 0
KCL2 250014Z 34008KT 14/13 A2986 RMK A01 T01410134  RH  095%=      5-min Rain = 0
KCL2 250015Z 33006KT 14/13 A2986 RMK A01 T01410133  RH  095%=      5-min Rain = 0
KCL2 250016Z 34006KT 14/13 A2986 RMK A01 T01410133  RH  095%=      5-min Rain = 0
KCL2 250017Z 34007KT 14/13 A2986 RMK A01 T01410134  RH  095%=      5-min Rain = 0
KCL2 250018Z 34007KT 14/13 A2986 RMK A01 T01410133  RH  095%=      5-min Rain = 0
KCL2 250019Z 34005KT 14/13 A2986 RMK A01 T01410134  RH  095%=      5-min Rain = 0
KCL2 250020Z 34005KT 14/13 A2986 RMK A01 T01410134  RH  095%=      5-min Rain = 0
KCL2 250021Z 34004KT 14/13 A2986 RMK A01 T01410134  RH  095%=      5-min Rain = 0
KCL2 250022Z 34005KT 14/13 A2986 RMK A01 T01410134  RH  095%=      5-min Rain = 0
KCL2 250023Z 34004KT 14/13 A2986 RMK A01 T01410134  RH  095%=      5-min Rain = 0
KCL2 250024Z 34006KT 14/13 A2986 RMK A01 T01410134  RH  095%=      5-min Rain = 0
KCL2 250025Z 34005KT 14/13 A2986 RMK A01 T01410133  RH  095%=      5-min Rain = 0
KCL2 250026Z 34006KT 14/13 A2986 RMK A01 T01410134  RH  096%=      5-min Rain = 0
KCL2 250027Z 33005KT 14/13 A2986 RMK A01 T01400133  RH  095%=      5-min Rain = 0
KCL2 250028Z 34005KT 14/13 A2986 RMK A01 T01400133  RH  095%=      5-min Rain = 0
KCL2 250029Z 34004KT 14/13 A2986 RMK A01 T01400132  RH  095%=      5-min Rain = 0
KCL2 250030Z 34005KT 14/13 A2986 RMK A01 T01400132  RH  095%=      5-min Rain = 0
KCL2 250031Z 34005KT 14/13 A2986 RMK A01 T01400132  RH  095%=      5-min Rain = 0
KCL2 250032Z 34004KT 14/13 A2986 RMK A01 T01390131  RH  095%=      5-min Rain = 0
KCL2 250033Z 34004KT 14/13 A2986 RMK A01 T01400132  RH  095%=      5-min Rain = 0
KCL2 250034Z 33003KT 14/13 A2986 RMK A01 T01400132  RH  095%=      5-min Rain = 0
KCL2 250035Z 32003KT 14/13 A2986 RMK A01 T01400132  RH  095%=      5-min Rain = 0
KCL2 250036Z 32003KT 14/13 A2986 RMK A01 T01390131  RH  095%=      5-min Rain = 0
KCL2 250037Z 31002KT 14/13 A2986 RMK A01 T01390130  RH  094%=      5-min Rain = 0
KCL2 250038Z 33002KT 14/13 A2986 RMK A01 T01390130  RH  094%=      5-min Rain = 0
KCL2 250039Z 33002KT 14/13 A2986 RMK A01 T01390130  RH  094%=      5-min Rain = 0
KCL2 250040Z 29001KT 14/13 A2986 RMK A01 T01390130  RH  094%=      5-min Rain = 0
KCL2 250041Z 28001KT 14/13 A2986 RMK A01 T01400131  RH  094%=      5-min Rain = 0
KCL2 250042Z 25001KT 14/13 A2986 RMK A01 T01400131  RH  094%=      5-min Rain = 0
KCL2 250043Z 24002KT 14/13 A2986 RMK A01 T01400131  RH  094%=      5-min Rain = 0
KCL2 250044Z 24003KT 14/13 A2987 RMK A01 T01400131  RH  094%=      5-min Rain = 0
KCL2 250045Z 24003KT 14/13 A2987 RMK A01 T01400131  RH  094%=      5-min Rain = 0
KCL2 250046Z 24003KT 14/13 A2987 RMK A01 T01400131  RH  095%=      5-min Rain = 0
KCL2 250047Z 23003KT 14/13 A2987 RMK A01 T01390131  RH  095%=      5-min Rain = 0
KCL2 250048Z 25003KT 14/13 A2987 RMK A01 T01390131  RH  095%=      5-min Rain = 0
KCL2 250049Z 24003KT 14/13 A2987 RMK A01 T01390131  RH  095%=      5-min Rain = 0
KCL2 250050Z 25002KT 14/13 A2987 RMK A01 T01390132  RH  095%=      5-min Rain = 0
KCL2 250051Z 25003KT 14/13 A2987 RMK A01 T01390132  RH  095%=      5-min Rain = 0
KCL2 250052Z 26003KT 14/13 A2987 RMK A01 T01390132  RH  095%=      5-min Rain = 0
KCL2 250053Z 27002KT 14/13 A2987 RMK A01 T01390131  RH  095%=      5-min Rain = 0
KCL2 250054Z 28003KT 14/13 A2987 RMK A01 T01390132  RH  096%=      5-min Rain = 0
KCL2 250055Z 28003KT 14/13 A2987 RMK A01 T01390132  RH  096%=      5-min Rain = 0
KCL2 250056Z 28003KT 14/13 A2987 RMK A01 T01390132  RH  096%=      5-min Rain = 0
KCL2 250057Z 29003KT 14/13 A2987 RMK A01 T01390132  RH  096%=      5-min Rain = 0
KCL2 250058Z 29004KT 14/13 A2987 RMK A01 T01390132  RH  096%=      5-min Rain = 0
KCL2 250059Z 29004KT 14/13 A2987 RMK A01 T01380132  RH  096%=      5-min Rain = 0
KCL2 250100Z 29004KT 14/13 A2987 RMK A01 T01390133  RH  096%=      5-min Rain = 0
KCL2 250101Z 28005KT 14/13 A2988 RMK A01 T01390133  RH  097%=      5-min Rain = 0
KCL2 250102Z 28005KT 14/13 A2988 RMK A01 T01390133  RH  097%=      5-min Rain = 0
KCL2 250103Z 28005KT 14/13 A2988 RMK A01 T01390133  RH  097%=      5-min Rain = 0
KCL2 250104Z 28005KT 14/13 A2988 RMK A01 T01380133  RH  096%=      5-min Rain = 0
KCL2 250105Z 28006KT 14/13 A2988 RMK A01 T01380133  RH  096%=      5-min Rain = 0
KCL2 250106Z 27005KT 14/13 A2988 RMK A01 T01380132  RH  096%=      5-min Rain = 0
KCL2 250107Z 27006KT 14/13 A2988 RMK A01 T01370131  RH  096%=      5-min Rain = 0
KCL2 250108Z 27005KT 14/13 A2988 RMK A01 T01370131  RH  096%=      5-min Rain = 0
KCL2 250109Z 27005KT 14/13 A2988 RMK A01 T01370131  RH  096%=      5-min Rain = 0
KCL2 250110Z 27005KT 14/13 A2988 RMK A01 T01370131  RH  096%=      5-min Rain = 0
KCL2 250111Z 27005KT 14/13 A2989 RMK A01 T01370131  RH  096%=      5-min Rain = 0
KCL2 250112Z 27005KT 14/13 A2989 RMK A01 T01370131  RH  096%=      5-min Rain = 0
KCL2 250113Z 27004KT 14/13 A2989 RMK A01 T01370131  RH  096%=      5-min Rain = 0
KCL2 250114Z 27005KT 14/13 A2989 RMK A01 T01370131  RH  096%=      5-min Rain = 0
KCL2 250115Z 27005KT 14/13 A2989 RMK A01 T01370131  RH  096%=      5-min Rain = 0
KCL2 250116Z 27005KT 14/13 A2989 RMK A01 T01370131  RH  096%=      5-min Rain = 0
KCL2 250117Z 27005KT 14/13 A2989 RMK A01 T01370131  RH  096%=      5-min Rain = 0
KCL2 250118Z 27005KT 14/13 A2989 RMK A01 T01370131  RH  096%=      5-min Rain = 0
KCL2 250119Z 27004KT 14/13 A2989 RMK A01 T01370131  RH  096%=      5-min Rain = 0
KCL2 250120Z 28005KT 14/13 A2989 RMK A01 T01370131  RH  096%=      5-min Rain = 0
KCL2 250121Z 29004KT 14/13 A2989 RMK A01 T01370131  RH  096%=      5-min Rain = 0
KCL2 250122Z 29005KT 14/13 A2989 RMK A01 T01370131  RH  096%=      5-min Rain = 0
KCL2 250123Z 29004KT 14/13 A2989 RMK A01 T01370131  RH  096%=      5-min Rain = 0
KCL2 250124Z 29004KT 14/13 A2989 RMK A01 T01370131  RH  096%=      5-min Rain = 0
KCL2 250125Z 31004KT 14/13 A2989 RMK A01 T01370132  RH  097%=      5-min Rain = 0
KCL2 250126Z 31004KT 14/13 A2989 RMK A01 T01370132  RH  097%=      5-min Rain = 0
KCL2 250127Z 31004KT 14/13 A2989 RMK A01 T01370132  RH  097%=      5-min Rain = 0
KCL2 250128Z 31004KT 14/13 A2989 RMK A01 T01370132  RH  097%=      5-min Rain = 0
KCL2 250129Z 30004KT 14/13 A2989 RMK A01 T01360132  RH  097%=      5-min Rain = 0
KCL2 250130Z 30004KT 14/13 A2989 RMK A01 T01360132  RH  097%=      5-min Rain = 0
KCL2 250131Z 30004KT 14/13 A2989 RMK A01 T01370133  RH  097%=      5-min Rain = 0
KCL2 250132Z 29004KT 14/13 A2989 RMK A01 T01360133  RH  097%=      5-min Rain = 0
KCL2 250133Z 30004KT 14/13 A2989 RMK A01 T01360132  RH  097%=      5-min Rain = 0
KCL2 250134Z 30004KT 14/13 A2989 RMK A01 T01360133  RH  098%=      5-min Rain = 0
KCL2 250135Z 29004KT 14/13 A2989 RMK A01 T01360132  RH  098%=      5-min Rain = 0
KCL2 250136Z 28004KT 14/13 A2989 RMK A01 T01370133  RH  097%=      5-min Rain = 0
KCL2 250137Z 28003KT 14/13 A299 RMK A01 T01370133  RH  097%=      5-min Rain = 0
KCL2 250138Z 28004KT 14/13 A299 RMK A01 T01370133  RH  097%=      5-min Rain = 0
KCL2 250139Z 28004KT 14/13 A299 RMK A01 T01370133  RH  097%=      5-min Rain = 0
KCL2 250140Z 28004KT 14/13 A299 RMK A01 T01370133  RH  097%=      5-min Rain = 0
KCL2 250141Z 28005KT 14/13 A299 RMK A01 T01370133  RH  097%=      5-min Rain = 0
KCL2 250142Z 29005KT 14/13 A299 RMK A01 T01370133  RH  097%=      5-min Rain = 0
KCL2 250143Z 28004KT 14/13 A299 RMK A01 T01370133  RH  097%=      5-min Rain = 0
KCL2 250144Z 28004KT 14/13 A299 RMK A01 T01370133  RH  097%=      5-min Rain = 0
KCL2 250145Z 28004KT 14/13 A299 RMK A01 T01370133  RH  097%=      5-min Rain = 0
KCL2 250146Z 27004KT 14/13 A299 RMK A01 T01360132  RH  097%=      5-min Rain = 0
KCL2 250147Z 27004KT 14/13 A299 RMK A01 T01360132  RH  097%=      5-min Rain = 0
KCL2 250148Z 27004KT 14/13 A299 RMK A01 T01360132  RH  097%=      5-min Rain = 0
KCL2 250149Z 27004KT 14/13 A299 RMK A01 T01350131  RH  097%=      5-min Rain = 0
KCL2 250150Z 27004KT 14/13 A299 RMK A01 T01350131  RH  097%=      5-min Rain = 0
KCL2 250151Z 27003KT 13/13 A299 RMK A01 T01340130  RH  097%=      5-min Rain = 0
KCL2 250152Z 27003KT 13/13 A299 RMK A01 T01340130  RH  097%=      5-min Rain = 0
KCL2 250153Z 27003KT 13/13 A299 RMK A01 T01340130  RH  097%=      5-min Rain = 0
KCL2 250154Z 26003KT 13/13 A299 RMK A01 T01340129  RH  097%=      5-min Rain = 0
KCL2 250155Z 26003KT 13/13 A299 RMK A01 T01330129  RH  097%=      5-min Rain = 0
KCL2 250156Z 25003KT 13/13 A299 RMK A01 T01330129  RH  097%=      5-min Rain = 0
KCL2 250157Z 24003KT 13/13 A299 RMK A01 T01330129  RH  097%=      5-min Rain = 0
KCL2 250158Z 24003KT 13/13 A299 RMK A01 T01330129  RH  098%=      5-min Rain = 0
KCL2 250159Z 24003KT 13/13 A299 RMK A01 T01320129  RH  098%=      5-min Rain = 0
KCL2 250200Z 24003KT 13/13 A299 RMK A01 T01320129  RH  098%=      5-min Rain = 0
KCL2 250201Z 24003KT 13/13 A299 RMK A01 T01320129  RH  098%=      5-min Rain = 0
KCL2 250202Z 24003KT 13/13 A299 RMK A01 T01320128  RH  098%=      5-min Rain = 0
KCL2 250203Z 24002KT 13/13 A299 RMK A01 T01320129  RH  098%=      5-min Rain = 0
KCL2 250204Z 24002KT 13/13 A299 RMK A01 T01320129  RH  098%=      5-min Rain = 0
KCL2 250205Z 24002KT 13/13 A299 RMK A01 T01320129  RH  098%=      5-min Rain = 0
KCL2 250206Z 24001KT 13/13 A299 RMK A01 T01320129  RH  098%=      5-min Rain = 0
KCL2 250207Z 25002KT 13/13 A299 RMK A01 T01320129  RH  098%=      5-min Rain = 0
KCL2 250208Z 24002KT 13/13 A299 RMK A01 T01320129  RH  098%=      5-min Rain = 0
KCL2 250209Z 23001KT 13/13 A299 RMK A01 T01320129  RH  098%=      5-min Rain = 0
KCL2 250210Z 23002KT 13/13 A299 RMK A01 T01320129  RH  098%=      5-min Rain = 0
KCL2 250211Z 23002KT 13/13 A299 RMK A01 T01320129  RH  098%=      5-min Rain = 0
KCL2 250212Z 22001KT 13/13 A299 RMK A01 T01320129  RH  098%=      5-min Rain = 0
KCL2 250213Z 23001KT 13/13 A299 RMK A01 T01320129  RH  098%=      5-min Rain = 0
KCL2 250214Z 23001KT 13/13 A299 RMK A01 T01320129  RH  098%=      5-min Rain = 0
KCL2 250215Z 23001KT 13/13 A299 RMK A01 T01310128  RH  098%=      5-min Rain = 0
KCL2 250216Z 22001KT 13/13 A299 RMK A01 T01310128  RH  098%=      5-min Rain = 0
KCL2 250217Z 22001KT 13/13 A299 RMK A01 T01310128  RH  098%=      5-min Rain = 0
KCL2 250218Z 22002KT 13/13 A299 RMK A01 T01310128  RH  098%=      5-min Rain = 0
KCL2 250219Z 22002KT 13/13 A299 RMK A01 T01310128  RH  098%=      5-min Rain = 0
KCL2 250220Z 22003KT 13/13 A299 RMK A01 T01310129  RH  098%=      5-min Rain = 0
KCL2 250221Z 22003KT 13/13 A299 RMK A01 T01310129  RH  099%=      5-min Rain = 0
KCL2 250222Z 22003KT 13/13 A299 RMK A01 T01310129  RH  099%=      5-min Rain = 0
KCL2 250223Z 21003KT 13/13 A299 RMK A01 T01310129  RH  099%=      5-min Rain = 0
KCL2 250224Z 22004KT 13/13 A299 RMK A01 T01310128  RH  098%=      5-min Rain = 0
KCL2 250225Z 22004KT 13/13 A299 RMK A01 T01300128  RH  098%=      5-min Rain = 0
KCL2 250226Z 22004KT 13/13 A299 RMK A01 T01290127  RH  098%=      5-min Rain = 0
KCL2 250227Z 22004KT 13/13 A299 RMK A01 T01290127  RH  098%=      5-min Rain = 0
KCL2 250228Z 22004KT 13/13 A299 RMK A01 T01290127  RH  099%=      5-min Rain = 0
KCL2 250229Z 22004KT 13/13 A299 RMK A01 T01290127  RH  099%=      5-min Rain = 0
KCL2 250230Z 22003KT 13/13 A299 RMK A01 T01290127  RH  099%=      5-min Rain = 0
KCL2 250231Z 22004KT 13/13 A299 RMK A01 T01280127  RH  099%=      5-min Rain = 0
KCL2 250232Z 22004KT 13/13 A299 RMK A01 T01280127  RH  099%=      5-min Rain = 0
KCL2 250233Z 22004KT 13/13 A299 RMK A01 T01280127  RH  099%=      5-min Rain = 0
KCL2 250234Z 21004KT 13/13 A299 RMK A01 T01280127  RH  099%=      5-min Rain = 0
KCL2 250235Z 21004KT 13/13 A299 RMK A01 T01280127  RH  099%=      5-min Rain = 0
KCL2 250236Z 21005KT 13/13 A2989 RMK A01 T01290127  RH  099%=      5-min Rain = 0
KCL2 250237Z 21005KT 13/13 A2989 RMK A01 T01290127  RH  099%=      5-min Rain = 0
KCL2 250238Z 21004KT 13/13 A2989 RMK A01 T01290127  RH  099%=      5-min Rain = 0
KCL2 250239Z 20004KT 13/13 A2989 RMK A01 T01280127  RH  099%=      5-min Rain = 0
KCL2 250240Z 20003KT 13/13 A2989 RMK A01 T01280127  RH  099%=      5-min Rain = 0
KCL2 250241Z 20003KT 13/13 A2989 RMK A01 T01280127  RH  099%=      5-min Rain = 0
KCL2 250242Z 20002KT 13/13 A299 RMK A01 T01290127  RH  099%=      5-min Rain = 0
KCL2 250243Z 20002KT 13/13 A299 RMK A01 T01290127  RH  099%=      5-min Rain = 0
KCL2 250244Z 20002KT 13/13 A299 RMK A01 T01290127  RH  099%=      5-min Rain = 0
KCL2 250245Z 19002KT 13/13 A299 RMK A01 T01280127  RH  099%=      5-min Rain = 0
KCL2 250246Z 20001KT 13/13 A299 RMK A01 T01280127  RH  099%=      5-min Rain = 0
KCL2 250247Z 20001KT 13/13 A299 RMK A01 T01290127  RH  099%=      5-min Rain = 0
KCL2 250248Z 20001KT 13/13 A299 RMK A01 T01280127  RH  099%=      5-min Rain = 0
KCL2 250249Z 20001KT 13/13 A299 RMK A01 T01290128  RH  099%=      5-min Rain = 0
KCL2 250250Z 20001KT 13/13 A299 RMK A01 T01290128  RH  099%=      5-min Rain = 0
KCL2 250251Z 20001KT 13/13 A299 RMK A01 T01290127  RH  099%=      5-min Rain = 0
KCL2 250252Z 21001KT 13/13 A299 RMK A01 T01290127  RH  099%=      5-min Rain = 0
KCL2 250253Z 20001KT 13/13 A299 RMK A01 T01290127  RH  099%=      5-min Rain = 0
KCL2 250254Z 21001KT 13/13 A299 RMK A01 T01300128  RH  099%=      5-min Rain = 0
KCL2 250255Z 20001KT 13/13 A299 RMK A01 T01290128  RH  099%=      5-min Rain = 0
KCL2 250256Z 21001KT 13/13 A299 RMK A01 T01300128  RH  099%=      5-min Rain = 0
KCL2 250257Z 21002KT 13/13 A299 RMK A01 T01290128  RH  099%=      5-min Rain = 0
KCL2 250258Z 21002KT 13/13 A299 RMK A01 T01290128  RH  099%=      5-min Rain = 0
KCL2 250259Z 21002KT 13/13 A299 RMK A01 T01290127  RH  099%=      5-min Rain = 0
KCL2 250300Z 21002KT 13/13 A299 RMK A01 T01290127  RH  099%=      5-min Rain = 0
KCL2 250301Z 22002KT 13/13 A299 RMK A01 T01290127  RH  098%=      5-min Rain = 0
KCL2 250302Z 22002KT 13/13 A299 RMK A01 T01290127  RH  098%=      5-min Rain = 0
KCL2 250303Z 23002KT 13/13 A299 RMK A01 T01300127  RH  098%=      5-min Rain = 0
KCL2 250304Z 23002KT 13/13 A299 RMK A01 T01300127  RH  098%=      5-min Rain = 0
KCL2 250305Z 23001KT 13/13 A299 RMK A01 T01300127  RH  098%=      5-min Rain = 0
KCL2 250306Z 24001KT 13/13 A299 RMK A01 T01300127  RH  098%=      5-min Rain = 0
KCL2 250307Z 25001KT 13/13 A299 RMK A01 T01300127  RH  098%=      5-min Rain = 0
KCL2 250308Z 25001KT 13/13 A299 RMK A01 T01300127  RH  098%=      5-min Rain = 0
KCL2 250309Z 25001KT 13/13 A299 RMK A01 T01300127  RH  098%=      5-min Rain = 0
KCL2 250310Z 26001KT 13/13 A299 RMK A01 T01300127  RH  098%=      5-min Rain = 0
KCL2 250311Z 26001KT 13/13 A299 RMK A01 T01300127  RH  098%=      5-min Rain = 0
KCL2 250312Z 26001KT 13/13 A299 RMK A01 T01300127  RH  098%=      5-min Rain = 0
KCL2 250313Z 25001KT 13/13 A299 RMK A01 T01300127  RH  098%=      5-min Rain = 0
KCL2 250314Z 25001KT 13/13 A299 RMK A01 T01300127  RH  098%=      5-min Rain = 0
KCL2 250315Z 25001KT 13/13 A299 RMK A01 T01300127  RH  098%=      5-min Rain = 0
KCL2 250316Z 24001KT 13/13 A299 RMK A01 T01300127  RH  098%=      5-min Rain = 0
KCL2 250317Z 24001KT 13/13 A299 RMK A01 T01300127  RH  098%=      5-min Rain = 0
KCL2 250318Z 24001KT 13/13 A299 RMK A01 T01300127  RH  098%=      5-min Rain = 0
KCL2 250319Z 25001KT 13/13 A299 RMK A01 T01300127  RH  098%=      5-min Rain = 0
KCL2 250320Z 25001KT 13/13 A299 RMK A01 T01290127  RH  098%=      5-min Rain = 0
KCL2 250321Z 26000KT 13/13 A299 RMK A01 T01290127  RH  098%=      5-min Rain = 0
KCL2 250322Z 28001KT 13/13 A299 RMK A01 T01290127  RH  098%=      5-min Rain = 0
KCL2 250323Z 29001KT 13/13 A299 RMK A01 T01290127  RH  098%=      5-min Rain = 0
KCL2 250324Z 30001KT 13/13 A299 RMK A01 T01300127  RH  098%=      5-min Rain = 0
KCL2 250325Z 29001KT 13/13 A299 RMK A01 T01300127  RH  098%=      5-min Rain = 0
KCL2 250326Z 28001KT 13/13 A299 RMK A01 T01290127  RH  098%=      5-min Rain = 0
KCL2 250327Z 27001KT 13/13 A299 RMK A01 T01300127  RH  098%=      5-min Rain = 0
KCL2 250328Z 27001KT 13/13 A299 RMK A01 T01290127  RH  098%=      5-min Rain = 0
KCL2 250329Z 27001KT 13/13 A299 RMK A01 T01290127  RH  099%=      5-min Rain = 0
KCL2 250330Z 26002KT 13/13 A299 RMK A01 T01290127  RH  099%=      5-min Rain = 0
KCL2 250331Z 25002KT 13/13 A299 RMK A01 T01290127  RH  099%=      5-min Rain = 0
KCL2 250332Z 24002KT 13/13 A299 RMK A01 T01290127  RH  099%=      5-min Rain = 0
KCL2 250333Z 24002KT 13/13 A299 RMK A01 T01290127  RH  099%=      5-min Rain = 0
KCL2 250334Z 24002KT 13/13 A299 RMK A01 T01290127  RH  099%=      5-min Rain = 0
KCL2 250335Z 24003KT 13/13 A299 RMK A01 T01290127  RH  099%=      5-min Rain = 0
KCL2 250336Z 24003KT 13/13 A299 RMK A01 T01290127  RH  099%=      5-min Rain = 0
KCL2 250337Z 24002KT 13/13 A299 RMK A01 T01280125  RH  099%=      5-min Rain = 0
KCL2 250338Z 24002KT 13/13 A299 RMK A01 T01270125  RH  099%=      5-min Rain = 0
KCL2 250339Z 24002KT 13/13 A299 RMK A01 T01270125  RH  099%=      5-min Rain = 0
KCL2 250340Z 24002KT 13/13 A299 RMK A01 T01270125  RH  099%=      5-min Rain = 0
KCL2 250341Z 25002KT 13/13 A299 RMK A01 T01270126  RH  099%=      5-min Rain = 0
KCL2 250342Z 26002KT 13/13 A299 RMK A01 T01270126  RH  099%=      5-min Rain = 0
KCL2 250343Z 27002KT 13/13 A299 RMK A01 T01270126  RH  099%=      5-min Rain = 0
KCL2 250344Z 28002KT 13/13 A299 RMK A01 T01270126  RH  099%=      5-min Rain = 0
KCL2 250345Z 28003KT 13/13 A299 RMK A01 T01270126  RH  099%=      5-min Rain = 0
KCL2 250346Z 28003KT 13/13 A299 RMK A01 T01260125  RH  099%=      5-min Rain = 0
KCL2 250347Z 28003KT 13/12 A299 RMK A01 T01250124  RH  099%=      5-min Rain = 0
KCL2 250348Z 27002KT 13/12 A299 RMK A01 T01250123  RH  099%=      5-min Rain = 0
KCL2 250349Z 27003KT 12/12 A299 RMK A01 T01240123  RH  099%=      5-min Rain = 0
KCL2 250350Z 27003KT 12/12 A299 RMK A01 T01240123  RH  099%=      5-min Rain = 0
KCL2 250351Z 26004KT 12/12 A299 RMK A01 T01230122  RH  099%=      5-min Rain = 0
KCL2 250352Z 27004KT 12/12 A299 RMK A01 T01240123  RH  099%=      5-min Rain = 0
KCL2 250353Z 27003KT 12/12 A299 RMK A01 T01230123  RH  099%=      5-min Rain = 0
KCL2 250354Z 27003KT 12/12 A299 RMK A01 T01240123  RH  099%=      5-min Rain = 0
KCL2 250355Z 27003KT 12/12 A299 RMK A01 T01240123  RH  100%=      5-min Rain = 0
KCL2 250356Z 27003KT 12/12 A299 RMK A01 T01240123  RH  100%=      5-min Rain = 0
KCL2 250357Z 27003KT 12/12 A299 RMK A01 T01240123  RH  100%=      5-min Rain = 0
KCL2 250358Z 26003KT 12/12 A299 RMK A01 T01240123  RH  100%=      5-min Rain = 0
KCL2 250359Z 26003KT 12/12 A299 RMK A01 T01240124  RH  100%=      5-min Rain = 0
KCL2 250400Z 25003KT 12/12 A299 RMK A01 T01240123  RH  100%=      5-min Rain = 0
KCL2 250401Z 25003KT 12/12 A299 RMK A01 T01240123  RH  100%=      5-min Rain = 0
KCL2 250402Z 25003KT 12/12 A299 RMK A01 T01240123  RH  100%=      5-min Rain = 0
KCL2 250403Z 25003KT 12/12 A299 RMK A01 T01240123  RH  100%=      5-min Rain = 0
KCL2 250404Z 25004KT 12/12 A2989 RMK A01 T01240123  RH  100%=      5-min Rain = 0
KCL2 250405Z 25004KT 13/12 A2989 RMK A01 T01250124  RH  100%=      5-min Rain = 0
KCL2 250406Z 25003KT 12/12 A299 RMK A01 T01240124  RH  100%=      5-min Rain = 0
KCL2 250407Z 26003KT 12/12 A2989 RMK A01 T01240124  RH  100%=      5-min Rain = 0
KCL2 250408Z 26003KT 12/12 A2989 RMK A01 T01240124  RH  100%=      5-min Rain = 0
KCL2 250409Z 26003KT 13/12 A2989 RMK A01 T01250124  RH  100%=      5-min Rain = 0
KCL2 250410Z 25003KT 12/12 A2989 RMK A01 T01240124  RH  100%=      5-min Rain = 0
KCL2 250411Z 25003KT 12/12 A2989 RMK A01 T01240124  RH  100%=      5-min Rain = 0
KCL2 250412Z 25003KT 12/12 A2989 RMK A01 T01240124  RH  100%=      5-min Rain = 0
KCL2 250413Z 26003KT 12/12 A2989 RMK A01 T01240124  RH  100%=      5-min Rain = 0
KCL2 250414Z 27003KT 12/12 A299 RMK A01 T01240124  RH  100%=      5-min Rain = 0
KCL2 250415Z 28002KT 12/12 A2989 RMK A01 T01240124  RH  100%=      5-min Rain = 0
KCL2 250416Z 28003KT 12/12 A2989 RMK A01 T01240124  RH  100%=      5-min Rain = 0
KCL2 250417Z 28003KT 12/12 A2989 RMK A01 T01240124  RH  100%=      5-min Rain = 0
KCL2 250418Z 27003KT 13/12 A2989 RMK A01 T01250124  RH  100%=      5-min Rain = 0
KCL2 250419Z 27003KT 13/12 A2989 RMK A01 T01250124  RH  100%=      5-min Rain = 0
KCL2 250420Z 27003KT 12/12 A2989 RMK A01 T01240124  RH  100%=      5-min Rain = 0
KCL2 250421Z 27003KT 13/12 A2989 RMK A01 T01250124  RH  100%=      5-min Rain = 0
KCL2 250422Z 27003KT 13/12 A2989 RMK A01 T01250124  RH  100%=      5-min Rain = 0
KCL2 250423Z 28003KT 13/12 A2989 RMK A01 T01250124  RH  100%=      5-min Rain = 0
KCL2 250424Z 27003KT 13/12 A2989 RMK A01 T01250124  RH  100%=      5-min Rain = 0
KCL2 250425Z 27003KT 13/12 A2989 RMK A01 T01250124  RH  100%=      5-min Rain = 0
KCL2 250426Z 27004KT 13/12 A2989 RMK A01 T01250124  RH  100%=      5-min Rain = 0
KCL2 250427Z 28004KT 13/12 A2989 RMK A01 T01250124  RH  100%=      5-min Rain = 0
KCL2 250428Z 28004KT 13/13 A2989 RMK A01 T01250125  RH  100%=      5-min Rain = 0
KCL2 250429Z 28004KT 13/13 A2989 RMK A01 T01250125  RH  100%=      5-min Rain = 0
KCL2 250430Z 28004KT 13/13 A2989 RMK A01 T01250125  RH  100%=      5-min Rain = 0
KCL2 250431Z 28004KT 13/13 A2989 RMK A01 T01250125  RH  100%=      5-min Rain = 0
KCL2 250432Z 28004KT 13/13 A2989 RMK A01 T01250125  RH  099%=      5-min Rain = 0
KCL2 250433Z 28004KT 13/12 A2989 RMK A01 T01250124  RH  099%=      5-min Rain = 0
KCL2 250434Z 28004KT 13/13 A2989 RMK A01 T01250125  RH  099%=      5-min Rain = 0
KCL2 250435Z 28004KT 13/13 A2989 RMK A01 T01260125  RH  099%=      5-min Rain = 0
KCL2 250436Z 28004KT 13/13 A2989 RMK A01 T01260125  RH  099%=      5-min Rain = 0
KCL2 250437Z 28004KT 13/13 A2989 RMK A01 T01260125  RH  099%=      5-min Rain = 0
KCL2 250438Z 28004KT 13/12 A2989 RMK A01 T01260124  RH  099%=      5-min Rain = 0
KCL2 250439Z 27004KT 13/12 A2989 RMK A01 T01260124  RH  099%=      5-min Rain = 0
KCL2 250440Z 27004KT 13/12 A2989 RMK A01 T01260124  RH  099%=      5-min Rain = 0
KCL2 250441Z 27004KT 13/12 A2989 RMK A01 T01260124  RH  099%=      5-min Rain = 0
KCL2 250442Z 27004KT 13/12 A2989 RMK A01 T01260124  RH  099%=      5-min Rain = 0
KCL2 250443Z 28004KT 13/12 A2989 RMK A01 T01250123  RH  099%=      5-min Rain = 0
KCL2 250444Z 28004KT 13/12 A2989 RMK A01 T01250123  RH  099%=      5-min Rain = 0
KCL2 250445Z 27004KT 13/12 A2989 RMK A01 T01250123  RH  099%=      5-min Rain = 0
KCL2 250446Z 27004KT 13/12 A2989 RMK A01 T01250123  RH  099%=      5-min Rain = 0
KCL2 250447Z 27004KT 13/12 A2989 RMK A01 T01250123  RH  099%=      5-min Rain = 0
KCL2 250448Z 27004KT 13/12 A2989 RMK A01 T01250123  RH  099%=      5-min Rain = 0
KCL2 250449Z 28004KT 12/12 A2989 RMK A01 T01240122  RH  099%=      5-min Rain = 0
KCL2 250450Z 28004KT 12/12 A2989 RMK A01 T01240122  RH  099%=      5-min Rain = 0
KCL2 250451Z 28004KT 12/12 A2989 RMK A01 T01240122  RH  099%=      5-min Rain = 0
KCL2 250452Z 28004KT 12/12 A2989 RMK A01 T01230121  RH  099%=      5-min Rain = 0
KCL2 250453Z 29004KT 12/12 A2989 RMK A01 T01230122  RH  099%=      5-min Rain = 0
KCL2 250454Z 28004KT 12/12 A2989 RMK A01 T01230121  RH  099%=      5-min Rain = 0
KCL2 250455Z 28003KT 12/12 A2989 RMK A01 T01230121  RH  099%=      5-min Rain = 0
KCL2 250456Z 28003KT 12/12 A2989 RMK A01 T01230121  RH  099%=      5-min Rain = 0
KCL2 250457Z 28003KT 12/12 A2989 RMK A01 T01230122  RH  099%=      5-min Rain = 0
KCL2 250458Z 27003KT 12/12 A2989 RMK A01 T01230121  RH  099%=      5-min Rain = 0
KCL2 250459Z 27003KT 12/12 A2989 RMK A01 T01230121  RH  099%=      5-min Rain = 0

Page generated in 0.1286 seconds.